Observation data for McAdoo on 03/04/2021      Previous  Date  Next       Current Mesonet Observations  Soil Data  Daily Summary Page  Observations in Plain Language
KMC6 040600Z 21010KT 07/M11 A3003 RMK A01 T00711109  RH  027%=      5-min Rain = 0
KMC6 040601Z 21010KT 07/M11 A3003 RMK A01 T00701109  RH  027%=      5-min Rain = 0
KMC6 040602Z 21010KT 07/M11 A3003 RMK A01 T00691109  RH  027%=      5-min Rain = 0
KMC6 040603Z 21011KT 07/M11 A3003 RMK A01 T00701109  RH  027%=      5-min Rain = 0
KMC6 040604Z 21010KT 07/M11 A3003 RMK A01 T00711108  RH  027%=      5-min Rain = 0
KMC6 040605Z 21010KT 07/M11 A3003 RMK A01 T00721108  RH  027%=      5-min Rain = 0
KMC6 040606Z 21010KT 07/M11 A3003 RMK A01 T00731108  RH  026%=      5-min Rain = 0
KMC6 040607Z 20010KT 08/M11 A3003 RMK A01 T00751107  RH  026%=      5-min Rain = 0
KMC6 040608Z 21010KT 08/M11 A3003 RMK A01 T00761107  RH  026%=      5-min Rain = 0
KMC6 040609Z 21009KT 08/M11 A3003 RMK A01 T00771106  RH  026%=      5-min Rain = 0
KMC6 040610Z 21010KT 08/M11 A3003 RMK A01 T00771106  RH  026%=      5-min Rain = 0
KMC6 040611Z 21010KT 08/M11 A3003 RMK A01 T00771106  RH  026%=      5-min Rain = 0
KMC6 040612Z 21010KT 08/M11 A3003 RMK A01 T00781106  RH  026%=      5-min Rain = 0
KMC6 040613Z 21010KT 08/M11 A3003 RMK A01 T00781106  RH  026%=      5-min Rain = 0
KMC6 040614Z 21009KT 08/M11 A3003 RMK A01 T00791106  RH  026%=      5-min Rain = 0
KMC6 040615Z 21009KT 08/M11 A3003 RMK A01 T00801106  RH  026%=      5-min Rain = 0
KMC6 040616Z 21009KT 08/M11 A3003 RMK A01 T00811105  RH  026%=      5-min Rain = 0
KMC6 040617Z 21009KT 08/M11 A3003 RMK A01 T00811105  RH  026%=      5-min Rain = 0
KMC6 040618Z 21008KT 08/M11 A3003 RMK A01 T00821105  RH  025%=      5-min Rain = 0
KMC6 040619Z 21008KT 08/M11 A3003 RMK A01 T00821105  RH  025%=      5-min Rain = 0
KMC6 040620Z 21008KT 08/M10 A3003 RMK A01 T00821104  RH  025%=      5-min Rain = 0
KMC6 040621Z 22008KT 08/M10 A3003 RMK A01 T00821104  RH  026%=      5-min Rain = 0
KMC6 040622Z 22008KT 08/M10 A3003 RMK A01 T00811104  RH  026%=      5-min Rain = 0
KMC6 040623Z 22008KT 08/M10 A3003 RMK A01 T00811104  RH  026%=      5-min Rain = 0
KMC6 040624Z 22008KT 08/M10 A3003 RMK A01 T00811104  RH  026%=      5-min Rain = 0
KMC6 040625Z 23008KT 08/M10 A3003 RMK A01 T00801103  RH  026%=      5-min Rain = 0
KMC6 040626Z 23008KT 08/M10 A3003 RMK A01 T00791103  RH  026%=      5-min Rain = 0
KMC6 040627Z 23008KT 08/M10 A3003 RMK A01 T00771102  RH  027%=      5-min Rain = 0
KMC6 040628Z 23008KT 08/M10 A3003 RMK A01 T00751102  RH  027%=      5-min Rain = 0
KMC6 040629Z 23008KT 07/M10 A3003 RMK A01 T00731101  RH  028%=      5-min Rain = 0
KMC6 040630Z 22008KT 07/M10 A3003 RMK A01 T00711098  RH  029%=      5-min Rain = 0
KMC6 040631Z 22008KT 07/M10 A3003 RMK A01 T00711097  RH  029%=      5-min Rain = 0
KMC6 040632Z 22008KT 07/M10 A3003 RMK A01 T00701096  RH  030%=      5-min Rain = 0
KMC6 040633Z 22009KT 07/M10 A3003 RMK A01 T00701095  RH  030%=      5-min Rain = 0
KMC6 040634Z 22009KT 07/M10 A3003 RMK A01 T00701095  RH  030%=      5-min Rain = 0
KMC6 040635Z 22009KT 07/M10 A3003 RMK A01 T00701095  RH  030%=      5-min Rain = 0
KMC6 040636Z 22009KT 07/M10 A3003 RMK A01 T00701095  RH  030%=      5-min Rain = 0
KMC6 040637Z 22009KT 07/M10 A3003 RMK A01 T00701095  RH  030%=      5-min Rain = 0
KMC6 040638Z 21009KT 07/M10 A3003 RMK A01 T00701095  RH  030%=      5-min Rain = 0
KMC6 040639Z 21009KT 07/M10 A3003 RMK A01 T00691095  RH  030%=      5-min Rain = 0
KMC6 040640Z 21009KT 07/M10 A3003 RMK A01 T00691095  RH  030%=      5-min Rain = 0
KMC6 040641Z 21008KT 07/M10 A3003 RMK A01 T00691095  RH  030%=      5-min Rain = 0
KMC6 040642Z 21008KT 07/M10 A3003 RMK A01 T00701096  RH  030%=      5-min Rain = 0
KMC6 040643Z 21008KT 07/M10 A3003 RMK A01 T00701096  RH  029%=      5-min Rain = 0
KMC6 040644Z 22008KT 07/M10 A3003 RMK A01 T00701097  RH  029%=      5-min Rain = 0
KMC6 040645Z 22008KT 07/M10 A3003 RMK A01 T00701098  RH  029%=      5-min Rain = 0
KMC6 040646Z 22008KT 07/M10 A3003 RMK A01 T00711098  RH  029%=      5-min Rain = 0
KMC6 040647Z 22009KT 07/M10 A3003 RMK A01 T00721098  RH  029%=      5-min Rain = 0
KMC6 040648Z 22009KT 07/M10 A3003 RMK A01 T00731098  RH  028%=      5-min Rain = 0
KMC6 040649Z 22009KT 07/M10 A3003 RMK A01 T00741098  RH  028%=      5-min Rain = 0
KMC6 040650Z 21009KT 07/M10 A3003 RMK A01 T00741097  RH  029%=      5-min Rain = 0
KMC6 040651Z 21009KT 07/M10 A3003 RMK A01 T00731097  RH  029%=      5-min Rain = 0
KMC6 040652Z 21010KT 07/M10 A3003 RMK A01 T00711097  RH  029%=      5-min Rain = 0
KMC6 040653Z 21010KT 07/M10 A3003 RMK A01 T00691097  RH  030%=      5-min Rain = 0
KMC6 040654Z 22009KT 07/M10 A3003 RMK A01 T00691096  RH  030%=      5-min Rain = 0
KMC6 040655Z 22009KT 07/M10 A3003 RMK A01 T00691096  RH  030%=      5-min Rain = 0
KMC6 040656Z 22009KT 07/M10 A3003 RMK A01 T00681096  RH  030%=      5-min Rain = 0
KMC6 040657Z 22009KT 07/M10 A3003 RMK A01 T00681096  RH  030%=      5-min Rain = 0
KMC6 040658Z 22010KT 07/M10 A3003 RMK A01 T00681095  RH  030%=      5-min Rain = 0
KMC6 040659Z 22010KT 07/M10 A3003 RMK A01 T00681095  RH  030%=      5-min Rain = 0
KMC6 040700Z 22010KT 07/M10 A3003 RMK A01 T00691095  RH  030%=      5-min Rain = 0
KMC6 040701Z 22010KT 07/M10 A3003 RMK A01 T00701095  RH  030%=      5-min Rain = 0
KMC6 040702Z 22010KT 07/M10 A3003 RMK A01 T00711095  RH  030%=      5-min Rain = 0
KMC6 040703Z 22010KT 07/M10 A3003 RMK A01 T00711095  RH  030%=      5-min Rain = 0
KMC6 040704Z 22011KT 07/M09 A3003 RMK A01 T00691094  RH  030%=      5-min Rain = 0
KMC6 040705Z 22011KT 07/M09 A3003 RMK A01 T00671094  RH  031%=      5-min Rain = 0
KMC6 040706Z 22010KT 07/M09 A3003 RMK A01 T00651093  RH  031%=      5-min Rain = 0
KMC6 040707Z 22011KT 06/M09 A3003 RMK A01 T00641092  RH  032%=      5-min Rain = 0
KMC6 040708Z 22011KT 06/M09 A3003 RMK A01 T00631091  RH  032%=      5-min Rain = 0
KMC6 040709Z 22011KT 06/M09 A3003 RMK A01 T00621091  RH  032%=      5-min Rain = 0
KMC6 040710Z 22010KT 06/M09 A3003 RMK A01 T00621091  RH  032%=      5-min Rain = 0
KMC6 040711Z 23011KT 06/M09 A3003 RMK A01 T00621091  RH  032%=      5-min Rain = 0
KMC6 040712Z 22011KT 06/M09 A3003 RMK A01 T00621091  RH  032%=      5-min Rain = 0
KMC6 040713Z 22010KT 06/M09 A3003 RMK A01 T00621091  RH  032%=      5-min Rain = 0
KMC6 040714Z 22010KT 06/M09 A3003 RMK A01 T00621091  RH  032%=      5-min Rain = 0
KMC6 040715Z 22010KT 06/M09 A3003 RMK A01 T00631091  RH  032%=      5-min Rain = 0
KMC6 040716Z 22011KT 06/M09 A3004 RMK A01 T00631091  RH  032%=      5-min Rain = 0
KMC6 040717Z 22011KT 06/M09 A3004 RMK A01 T00631091  RH  032%=      5-min Rain = 0
KMC6 040718Z 22011KT 06/M09 A3004 RMK A01 T00641091  RH  032%=      5-min Rain = 0
KMC6 040719Z 22011KT 07/M09 A3004 RMK A01 T00651091  RH  032%=      5-min Rain = 0
KMC6 040720Z 22011KT 07/M09 A3003 RMK A01 T00651092  RH  032%=      5-min Rain = 0
KMC6 040721Z 22011KT 07/M09 A3003 RMK A01 T00661092  RH  031%=      5-min Rain = 0
KMC6 040722Z 22011KT 07/M09 A3003 RMK A01 T00661092  RH  031%=      5-min Rain = 0
KMC6 040723Z 22011KT 07/M09 A3003 RMK A01 T00671092  RH  031%=      5-min Rain = 0
KMC6 040724Z 22011KT 07/M09 A3003 RMK A01 T00671092  RH  031%=      5-min Rain = 0
KMC6 040725Z 22011KT 07/M09 A3003 RMK A01 T00671092  RH  031%=      5-min Rain = 0
KMC6 040726Z 22011KT 07/M09 A3003 RMK A01 T00671092  RH  031%=      5-min Rain = 0
KMC6 040727Z 22011KT 07/M09 A3003 RMK A01 T00671092  RH  031%=      5-min Rain = 0
KMC6 040728Z 22011KT 07/M09 A3003 RMK A01 T00671092  RH  031%=      5-min Rain = 0
KMC6 040729Z 23010KT 07/M09 A3003 RMK A01 T00681092  RH  031%=      5-min Rain = 0
KMC6 040730Z 23010KT 07/M09 A3003 RMK A01 T00671092  RH  031%=      5-min Rain = 0
KMC6 040731Z 23010KT 07/M09 A3003 RMK A01 T00661092  RH  031%=      5-min Rain = 0
KMC6 040732Z 23010KT 07/M09 A3003 RMK A01 T00661092  RH  032%=      5-min Rain = 0
KMC6 040733Z 23010KT 07/M09 A3003 RMK A01 T00661092  RH  032%=      5-min Rain = 0
KMC6 040734Z 23010KT 07/M09 A3003 RMK A01 T00651092  RH  032%=      5-min Rain = 0
KMC6 040735Z 23010KT 07/M09 A3003 RMK A01 T00651092  RH  032%=      5-min Rain = 0
KMC6 040736Z 22010KT 07/M09 A3003 RMK A01 T00651092  RH  032%=      5-min Rain = 0
KMC6 040737Z 22010KT 06/M09 A3003 RMK A01 T00641091  RH  032%=      5-min Rain = 0
KMC6 040738Z 22010KT 06/M09 A3003 RMK A01 T00631091  RH  032%=      5-min Rain = 0
KMC6 040739Z 22010KT 06/M09 A3003 RMK A01 T00621091  RH  032%=      5-min Rain = 0
KMC6 040740Z 23011KT 06/M09 A3003 RMK A01 T00621090  RH  033%=      5-min Rain = 0
KMC6 040741Z 23011KT 06/M09 A3003 RMK A01 T00631090  RH  032%=      5-min Rain = 0
KMC6 040742Z 22011KT 06/M09 A3003 RMK A01 T00641090  RH  032%=      5-min Rain = 0
KMC6 040743Z 22011KT 06/M09 A3003 RMK A01 T00641091  RH  032%=      5-min Rain = 0
KMC6 040744Z 23012KT 06/M09 A3003 RMK A01 T00641091  RH  032%=      5-min Rain = 0
KMC6 040745Z 23012KT 06/M09 A3004 RMK A01 T00641091  RH  032%=      5-min Rain = 0
KMC6 040746Z 23012KT 06/M09 A3004 RMK A01 T00641091  RH  032%=      5-min Rain = 0
KMC6 040747Z 23011KT 07/M09 A3004 RMK A01 T00651090  RH  032%=      5-min Rain = 0
KMC6 040748Z 23011KT 07/M09 A3004 RMK A01 T00671090  RH  032%=      5-min Rain = 0
KMC6 040749Z 23011KT 07/M09 A3004 RMK A01 T00681089  RH  032%=      5-min Rain = 0
KMC6 040750Z 23012KT 07/M09 A3004 RMK A01 T00681089  RH  032%=      5-min Rain = 0
KMC6 040751Z 23012KT 07/M09 A3004 RMK A01 T00701087  RH  032%=      5-min Rain = 0
KMC6 040752Z 23012KT 07/M08 A3004 RMK A01 T00721083  RH  032%=      5-min Rain = 0
KMC6 040753Z 23013KT 07/M08 A3004 RMK A01 T00741080  RH  033%=      5-min Rain = 0
KMC6 040754Z 23013KT 08/M08 A3004 RMK A01 T00761077  RH  033%=      5-min Rain = 0
KMC6 040755Z 23013KT 08/M07 A3004 RMK A01 T00791074  RH  033%=      5-min Rain = 0
KMC6 040756Z 23013KT 08/M07 A3004 RMK A01 T00811072  RH  033%=      5-min Rain = 0
KMC6 040757Z 23013KT 08/M07 A3004 RMK A01 T00841069  RH  033%=      5-min Rain = 0
KMC6 040758Z 23012KT 09/M07 A3004 RMK A01 T00861067  RH  033%=      5-min Rain = 0
KMC6 040759Z 23012KT 09/M07 A3004 RMK A01 T00881066  RH  033%=      5-min Rain = 0
KMC6 040800Z 23012KT 09/M07 A3004 RMK A01 T00891065  RH  033%=      5-min Rain = 0
KMC6 040801Z 23013KT 09/M06 A3004 RMK A01 T00891063  RH  034%=      5-min Rain = 0
KMC6 040802Z 22013KT 09/M06 A3004 RMK A01 T00891061  RH  034%=      5-min Rain = 0
KMC6 040803Z 22013KT 09/M06 A3004 RMK A01 T00901059  RH  034%=      5-min Rain = 0
KMC6 040804Z 22013KT 09/M06 A3004 RMK A01 T00911058  RH  034%=      5-min Rain = 0
KMC6 040805Z 22013KT 09/M06 A3004 RMK A01 T00921057  RH  035%=      5-min Rain = 0
KMC6 040806Z 22013KT 09/M06 A3004 RMK A01 T00931055  RH  035%=      5-min Rain = 0
KMC6 040807Z 22013KT 09/M05 A3004 RMK A01 T00941054  RH  035%=      5-min Rain = 0
KMC6 040808Z 22013KT 10/M05 A3004 RMK A01 T00951053  RH  035%=      5-min Rain = 0
KMC6 040809Z 22013KT 10/M05 A3004 RMK A01 T00961052  RH  035%=      5-min Rain = 0
KMC6 040810Z 22013KT 10/M05 A3004 RMK A01 T00971051  RH  035%=      5-min Rain = 0
KMC6 040811Z 22013KT 10/M05 A3004 RMK A01 T00981050  RH  035%=      5-min Rain = 0
KMC6 040812Z 22012KT 10/M05 A3003 RMK A01 T00981049  RH  035%=      5-min Rain = 0
KMC6 040813Z 23012KT 10/M05 A3003 RMK A01 T01001048  RH  035%=      5-min Rain = 0
KMC6 040814Z 23012KT 10/M05 A3003 RMK A01 T01011047  RH  035%=      5-min Rain = 0
KMC6 040815Z 23012KT 10/M05 A3003 RMK A01 T01021047  RH  035%=      5-min Rain = 0
KMC6 040816Z 23012KT 10/M05 A3003 RMK A01 T01021046  RH  035%=      5-min Rain = 0
KMC6 040817Z 23011KT 10/M05 A3003 RMK A01 T01021046  RH  035%=      5-min Rain = 0
KMC6 040818Z 23011KT 10/M05 A3003 RMK A01 T01011046  RH  035%=      5-min Rain = 0
KMC6 040819Z 23011KT 10/M05 A3003 RMK A01 T01001045  RH  036%=      5-min Rain = 0
KMC6 040820Z 23011KT 10/M05 A3003 RMK A01 T00991045  RH  036%=      5-min Rain = 0
KMC6 040821Z 23011KT 10/M04 A3003 RMK A01 T00981044  RH  036%=      5-min Rain = 0
KMC6 040822Z 23011KT 10/M04 A3003 RMK A01 T00981043  RH  037%=      5-min Rain = 0
KMC6 040823Z 23012KT 10/M04 A3003 RMK A01 T00981043  RH  037%=      5-min Rain = 0
KMC6 040824Z 23012KT 10/M04 A3003 RMK A01 T00971043  RH  037%=      5-min Rain = 0
KMC6 040825Z 23012KT 10/M04 A3003 RMK A01 T00961042  RH  037%=      5-min Rain = 0
KMC6 040826Z 23012KT 10/M04 A3003 RMK A01 T00961042  RH  038%=      5-min Rain = 0
KMC6 040827Z 23011KT 10/M04 A3003 RMK A01 T00951042  RH  038%=      5-min Rain = 0
KMC6 040828Z 23011KT 09/M04 A3003 RMK A01 T00941042  RH  038%=      5-min Rain = 0
KMC6 040829Z 23011KT 09/M04 A3003 RMK A01 T00931042  RH  038%=      5-min Rain = 0
KMC6 040830Z 23011KT 09/M04 A3003 RMK A01 T00931042  RH  038%=      5-min Rain = 0
KMC6 040831Z 23011KT 09/M04 A3003 RMK A01 T00921042  RH  039%=      5-min Rain = 0
KMC6 040832Z 23011KT 09/M04 A3003 RMK A01 T00921042  RH  039%=      5-min Rain = 0
KMC6 040833Z 23010KT 09/M04 A3003 RMK A01 T00911042  RH  039%=      5-min Rain = 0
KMC6 040834Z 23010KT 09/M04 A3003 RMK A01 T00901042  RH  039%=      5-min Rain = 0
KMC6 040835Z 23010KT 09/M04 A3003 RMK A01 T00881043  RH  039%=      5-min Rain = 0
KMC6 040836Z 23010KT 09/M04 A3003 RMK A01 T00861043  RH  040%=      5-min Rain = 0
KMC6 040837Z 23010KT 09/M04 A3002 RMK A01 T00851043  RH  040%=      5-min Rain = 0
KMC6 040838Z 23010KT 09/M04 A3002 RMK A01 T00851042  RH  040%=      5-min Rain = 0
KMC6 040839Z 23010KT 09/M04 A3002 RMK A01 T00851043  RH  040%=      5-min Rain = 0
KMC6 040840Z 23010KT 09/M04 A3002 RMK A01 T00851043  RH  040%=      5-min Rain = 0
KMC6 040841Z 23009KT 09/M04 A3002 RMK A01 T00851042  RH  040%=      5-min Rain = 0
KMC6 040842Z 24009KT 09/M04 A3002 RMK A01 T00861042  RH  040%=      5-min Rain = 0
KMC6 040843Z 24009KT 09/M04 A3002 RMK A01 T00861042  RH  040%=      5-min Rain = 0
KMC6 040844Z 23009KT 09/M04 A3002 RMK A01 T00851043  RH  040%=      5-min Rain = 0
KMC6 040845Z 23010KT 08/M04 A3002 RMK A01 T00841043  RH  041%=      5-min Rain = 0
KMC6 040846Z 23010KT 08/M04 A3002 RMK A01 T00831043  RH  041%=      5-min Rain = 0
KMC6 040847Z 23010KT 08/M04 A3002 RMK A01 T00821043  RH  041%=      5-min Rain = 0
KMC6 040848Z 23010KT 08/M04 A3002 RMK A01 T00821043  RH  041%=      5-min Rain = 0
KMC6 040849Z 23010KT 08/M04 A3002 RMK A01 T00821043  RH  041%=      5-min Rain = 0
KMC6 040850Z 23009KT 08/M04 A3002 RMK A01 T00831042  RH  041%=      5-min Rain = 0
KMC6 040851Z 23010KT 09/M04 A3002 RMK A01 T00851042  RH  041%=      5-min Rain = 0
KMC6 040852Z 23010KT 09/M04 A3002 RMK A01 T00871042  RH  040%=      5-min Rain = 0
KMC6 040853Z 23010KT 09/M04 A3002 RMK A01 T00871042  RH  040%=      5-min Rain = 0
KMC6 040854Z 24010KT 09/M04 A3002 RMK A01 T00881042  RH  040%=      5-min Rain = 0
KMC6 040855Z 24010KT 09/M04 A3002 RMK A01 T00881043  RH  039%=      5-min Rain = 0
KMC6 040856Z 24010KT 09/M05 A3002 RMK A01 T00851045  RH  039%=      5-min Rain = 0
KMC6 040857Z 24010KT 08/M04 A3002 RMK A01 T00841044  RH  040%=      5-min Rain = 0
KMC6 040858Z 24010KT 08/M04 A3002 RMK A01 T00841044  RH  040%=      5-min Rain = 0
KMC6 040859Z 24009KT 08/M05 A3001 RMK A01 T00831045  RH  040%=      5-min Rain = 0
KMC6 040900Z 23009KT 08/M05 A3001 RMK A01 T00811046  RH  040%=      5-min Rain = 0
KMC6 040901Z 23009KT 08/M05 A3001 RMK A01 T00801045  RH  041%=      5-min Rain = 0
KMC6 040902Z 23010KT 08/M05 A3002 RMK A01 T00801045  RH  041%=      5-min Rain = 0
KMC6 040903Z 23010KT 08/M05 A3002 RMK A01 T00791045  RH  041%=      5-min Rain = 0
KMC6 040904Z 23010KT 08/M05 A3002 RMK A01 T00781045  RH  041%=      5-min Rain = 0
KMC6 040905Z 23010KT 08/M05 A3002 RMK A01 T00771045  RH  042%=      5-min Rain = 0
KMC6 040906Z 23010KT 08/M05 A3002 RMK A01 T00771045  RH  042%=      5-min Rain = 0
KMC6 040907Z 24010KT 08/M05 A3002 RMK A01 T00761045  RH  042%=      5-min Rain = 0
KMC6 040908Z 24010KT 08/M05 A3002 RMK A01 T00761045  RH  042%=      5-min Rain = 0
KMC6 040909Z 23010KT 08/M05 A3002 RMK A01 T00771045  RH  042%=      5-min Rain = 0
KMC6 040910Z 24010KT 08/M05 A3002 RMK A01 T00771045  RH  042%=      5-min Rain = 0
KMC6 040911Z 24010KT 08/M05 A3002 RMK A01 T00761046  RH  042%=      5-min Rain = 0
KMC6 040912Z 24010KT 07/M05 A3002 RMK A01 T00741047  RH  042%=      5-min Rain = 0
KMC6 040913Z 24011KT 07/M05 A3002 RMK A01 T00731047  RH  042%=      5-min Rain = 0
KMC6 040914Z 24011KT 07/M05 A3002 RMK A01 T00721047  RH  043%=      5-min Rain = 0
KMC6 040915Z 24011KT 07/M05 A3002 RMK A01 T00711047  RH  043%=      5-min Rain = 0
KMC6 040916Z 24011KT 07/M05 A3002 RMK A01 T00691048  RH  043%=      5-min Rain = 0
KMC6 040917Z 24011KT 07/M05 A3002 RMK A01 T00681048  RH  043%=      5-min Rain = 0
KMC6 040918Z 24011KT 07/M05 A3002 RMK A01 T00671048  RH  044%=      5-min Rain = 0
KMC6 040919Z 24011KT 07/M05 A3002 RMK A01 T00661048  RH  044%=      5-min Rain = 0
KMC6 040920Z 24011KT 07/M05 A3002 RMK A01 T00661047  RH  044%=      5-min Rain = 0
KMC6 040921Z 24011KT 07/M05 A3002 RMK A01 T00651048  RH  044%=      5-min Rain = 0
KMC6 040922Z 24010KT 07/M05 A3002 RMK A01 T00651047  RH  044%=      5-min Rain = 0
KMC6 040923Z 24010KT 07/M05 A3002 RMK A01 T00651047  RH  044%=      5-min Rain = 0
KMC6 040924Z 24010KT 07/M05 A3002 RMK A01 T00651047  RH  045%=      5-min Rain = 0
KMC6 040925Z 24010KT 07/M05 A3002 RMK A01 T00661047  RH  044%=      5-min Rain = 0
KMC6 040926Z 24009KT 07/M05 A3002 RMK A01 T00661047  RH  044%=      5-min Rain = 0
KMC6 040927Z 24009KT 07/M05 A3002 RMK A01 T00661047  RH  044%=      5-min Rain = 0
KMC6 040928Z 25009KT 07/M05 A3002 RMK A01 T00651048  RH  044%=      5-min Rain = 0
KMC6 040929Z 25009KT 06/M05 A3002 RMK A01 T00641049  RH  044%=      5-min Rain = 0
KMC6 040930Z 25009KT 06/M05 A3002 RMK A01 T00631050  RH  044%=      5-min Rain = 0
KMC6 040931Z 24009KT 06/M05 A3002 RMK A01 T00621050  RH  045%=      5-min Rain = 0
KMC6 040932Z 24008KT 06/M05 A3002 RMK A01 T00621049  RH  045%=      5-min Rain = 0
KMC6 040933Z 24009KT 06/M05 A3002 RMK A01 T00611049  RH  045%=      5-min Rain = 0
KMC6 040934Z 25009KT 06/M05 A3001 RMK A01 T00611049  RH  045%=      5-min Rain = 0
KMC6 040935Z 24009KT 06/M05 A3001 RMK A01 T00611048  RH  046%=      5-min Rain = 0
KMC6 040936Z 24009KT 06/M05 A3001 RMK A01 T00621046  RH  046%=      5-min Rain = 0
KMC6 040937Z 24010KT 06/M05 A3002 RMK A01 T00641046  RH  045%=      5-min Rain = 0
KMC6 040938Z 24010KT 06/M05 A3002 RMK A01 T00641048  RH  045%=      5-min Rain = 0
KMC6 040939Z 24009KT 06/M05 A3001 RMK A01 T00631050  RH  044%=      5-min Rain = 0
KMC6 040940Z 24009KT 06/M05 A3001 RMK A01 T00631049  RH  045%=      5-min Rain = 0
KMC6 040941Z 25010KT 06/M05 A3002 RMK A01 T00631049  RH  044%=      5-min Rain = 0
KMC6 040942Z 24009KT 06/M05 A3002 RMK A01 T00621052  RH  044%=      5-min Rain = 0
KMC6 040943Z 24009KT 06/M05 A3001 RMK A01 T00591053  RH  044%=      5-min Rain = 0
KMC6 040944Z 24009KT 06/M05 A3001 RMK A01 T00591051  RH  045%=      5-min Rain = 0
KMC6 040945Z 25009KT 06/M05 A3001 RMK A01 T00601050  RH  045%=      5-min Rain = 0
KMC6 040946Z 25010KT 06/M05 A3001 RMK A01 T00591053  RH  044%=      5-min Rain = 0
KMC6 040947Z 24009KT 06/M05 A3001 RMK A01 T00551054  RH  045%=      5-min Rain = 0
KMC6 040948Z 24008KT 05/M05 A3001 RMK A01 T00521054  RH  046%=      5-min Rain = 0
KMC6 040949Z 24009KT 05/M05 A3001 RMK A01 T00521053  RH  047%=      5-min Rain = 0
KMC6 040950Z 25009KT 05/M05 A3001 RMK A01 T00511054  RH  047%=      5-min Rain = 0
KMC6 040951Z 24008KT 05/M06 A3001 RMK A01 T00491056  RH  046%=      5-min Rain = 0
KMC6 040952Z 24007KT 05/M06 A3001 RMK A01 T00481057  RH  046%=      5-min Rain = 0
KMC6 040953Z 24008KT 05/M06 A3001 RMK A01 T00461057  RH  047%=      5-min Rain = 0
KMC6 040954Z 25009KT 05/M06 A3001 RMK A01 T00461056  RH  047%=      5-min Rain = 0
KMC6 040955Z 26009KT 05/M06 A3001 RMK A01 T00451058  RH  047%=      5-min Rain = 0
KMC6 040956Z 25009KT 04/M06 A3001 RMK A01 T00441057  RH  048%=      5-min Rain = 0
KMC6 040957Z 25007KT 04/M06 A3001 RMK A01 T00441055  RH  048%=      5-min Rain = 0
KMC6 040958Z 25007KT 05/M06 A3001 RMK A01 T00451055  RH  048%=      5-min Rain = 0
KMC6 040959Z 24006KT 05/M05 A3001 RMK A01 T00471053  RH  048%=      5-min Rain = 0
KMC6 041000Z 24007KT 05/M05 A3001 RMK A01 T00491053  RH  048%=      5-min Rain = 0
KMC6 041001Z 25007KT 05/M05 A3001 RMK A01 T00501053  RH  047%=      5-min Rain = 0
KMC6 041002Z 26008KT 05/M06 A3001 RMK A01 T00501055  RH  047%=      5-min Rain = 0
KMC6 041003Z 26008KT 05/M06 A3001 RMK A01 T00491056  RH  046%=      5-min Rain = 0
KMC6 041004Z 25007KT 05/M06 A3001 RMK A01 T00491055  RH  047%=      5-min Rain = 0
KMC6 041005Z 26008KT 05/M05 A3001 RMK A01 T00491054  RH  047%=      5-min Rain = 0
KMC6 041006Z 26008KT 05/M05 A3001 RMK A01 T00501054  RH  047%=      5-min Rain = 0
KMC6 041007Z 25007KT 05/M05 A3001 RMK A01 T00511054  RH  047%=      5-min Rain = 0
KMC6 041008Z 24007KT 05/M05 A3001 RMK A01 T00531051  RH  047%=      5-min Rain = 0
KMC6 041009Z 25008KT 06/M05 A3001 RMK A01 T00551051  RH  046%=      5-min Rain = 0
KMC6 041010Z 26008KT 06/M05 A3001 RMK A01 T00551053  RH  046%=      5-min Rain = 0
KMC6 041011Z 26008KT 05/M05 A3001 RMK A01 T00541053  RH  046%=      5-min Rain = 0
KMC6 041012Z 25008KT 05/M05 A3001 RMK A01 T00541053  RH  046%=      5-min Rain = 0
KMC6 041013Z 26008KT 05/M05 A3001 RMK A01 T00541052  RH  046%=      5-min Rain = 0
KMC6 041014Z 26008KT 05/M05 A3001 RMK A01 T00531052  RH  047%=      5-min Rain = 0
KMC6 041015Z 25007KT 05/M05 A3001 RMK A01 T00531052  RH  047%=      5-min Rain = 0
KMC6 041016Z 24008KT 05/M05 A3001 RMK A01 T00531051  RH  047%=      5-min Rain = 0
KMC6 041017Z 25009KT 05/M05 A3001 RMK A01 T00541052  RH  046%=      5-min Rain = 0
KMC6 041018Z 25010KT 05/M05 A3001 RMK A01 T00541053  RH  046%=      5-min Rain = 0
KMC6 041019Z 25010KT 05/M05 A3001 RMK A01 T00541052  RH  046%=      5-min Rain = 0
KMC6 041020Z 25010KT 05/M05 A3001 RMK A01 T00541051  RH  047%=      5-min Rain = 0
KMC6 041021Z 25010KT 05/M05 A3001 RMK A01 T00541052  RH  046%=      5-min Rain = 0
KMC6 041022Z 25010KT 05/M05 A3001 RMK A01 T00531053  RH  046%=      5-min Rain = 0
KMC6 041023Z 24010KT 05/M05 A3001 RMK A01 T00511054  RH  047%=      5-min Rain = 0
KMC6 041024Z 24010KT 05/M05 A3001 RMK A01 T00511053  RH  047%=      5-min Rain = 0
KMC6 041025Z 24010KT 05/M05 A3001 RMK A01 T00511052  RH  047%=      5-min Rain = 0
KMC6 041026Z 24010KT 05/M05 A3001 RMK A01 T00521052  RH  047%=      5-min Rain = 0
KMC6 041027Z 25010KT 05/M05 A3001 RMK A01 T00511053  RH  047%=      5-min Rain = 0
KMC6 041028Z 25010KT 05/M05 A3001 RMK A01 T00501053  RH  047%=      5-min Rain = 0
KMC6 041029Z 25010KT 05/M05 A3001 RMK A01 T00491054  RH  047%=      5-min Rain = 0
KMC6 041030Z 24010KT 05/M05 A3001 RMK A01 T00481053  RH  048%=      5-min Rain = 0
KMC6 041031Z 24010KT 05/M05 A3001 RMK A01 T00481052  RH  048%=      5-min Rain = 0
KMC6 041032Z 24010KT 05/M05 A3001 RMK A01 T00481053  RH  048%=      5-min Rain = 0
KMC6 041033Z 24010KT 05/M05 A3001 RMK A01 T00481052  RH  048%=      5-min Rain = 0
KMC6 041034Z 24010KT 05/M05 A3001 RMK A01 T00491051  RH  048%=      5-min Rain = 0
KMC6 041035Z 25010KT 05/M05 A3001 RMK A01 T00511051  RH  048%=      5-min Rain = 0
KMC6 041036Z 24010KT 05/M05 A3001 RMK A01 T00511054  RH  047%=      5-min Rain = 0
KMC6 041037Z 24010KT 05/M06 A3001 RMK A01 T00471056  RH  047%=      5-min Rain = 0
KMC6 041038Z 24010KT 05/M05 A3001 RMK A01 T00451054  RH  049%=      5-min Rain = 0
KMC6 041039Z 24010KT 05/M05 A3001 RMK A01 T00451053  RH  049%=      5-min Rain = 0
KMC6 041040Z 24009KT 05/M05 A3001 RMK A01 T00461053  RH  049%=      5-min Rain = 0
KMC6 041041Z 24009KT 05/M05 A3001 RMK A01 T00471052  RH  049%=      5-min Rain = 0
KMC6 041042Z 24009KT 05/M05 A3001 RMK A01 T00481051  RH  049%=      5-min Rain = 0
KMC6 041043Z 24009KT 05/M05 A3001 RMK A01 T00491050  RH  049%=      5-min Rain = 0
KMC6 041044Z 24009KT 05/M05 A3001 RMK A01 T00501050  RH  048%=      5-min Rain = 0
KMC6 041045Z 24009KT 05/M05 A3001 RMK A01 T00511051  RH  048%=      5-min Rain = 0
KMC6 041046Z 24009KT 05/M05 A3001 RMK A01 T00511051  RH  048%=      5-min Rain = 0
KMC6 041047Z 24009KT 05/M05 A3001 RMK A01 T00501052  RH  048%=      5-min Rain = 0
KMC6 041048Z 24009KT 05/M05 A3001 RMK A01 T00481054  RH  048%=      5-min Rain = 0
KMC6 041049Z 24009KT 05/M05 A3001 RMK A01 T00461054  RH  048%=      5-min Rain = 0
KMC6 041050Z 24009KT 04/M05 A3001 RMK A01 T00441054  RH  049%=      5-min Rain = 0
KMC6 041051Z 24010KT 04/M05 A3001 RMK A01 T00431053  RH  050%=      5-min Rain = 0
KMC6 041052Z 24010KT 04/M05 A3001 RMK A01 T00421052  RH  050%=      5-min Rain = 0
KMC6 041053Z 24010KT 04/M05 A3001 RMK A01 T00421051  RH  051%=      5-min Rain = 0
KMC6 041054Z 24010KT 04/M05 A3001 RMK A01 T00421051  RH  051%=      5-min Rain = 0
KMC6 041055Z 23010KT 04/M05 A3001 RMK A01 T00411052  RH  051%=      5-min Rain = 0
KMC6 041056Z 23009KT 04/M05 A3001 RMK A01 T00401052  RH  051%=      5-min Rain = 0
KMC6 041057Z 24009KT 04/M05 A3001 RMK A01 T00391053  RH  051%=      5-min Rain = 0
KMC6 041058Z 24009KT 04/M05 A3001 RMK A01 T00391053  RH  051%=      5-min Rain = 0
KMC6 041059Z 24009KT 04/M05 A3001 RMK A01 T00381054  RH  051%=      5-min Rain = 0
KMC6 041100Z 23009KT 04/M05 A3001 RMK A01 T00371054  RH  051%=      5-min Rain = 0
KMC6 041101Z 23009KT 04/M05 A3001 RMK A01 T00371054  RH  051%=      5-min Rain = 0
KMC6 041102Z 23009KT 04/M06 A3001 RMK A01 T00361055  RH  051%=      5-min Rain = 0
KMC6 041103Z 24008KT 04/M06 A3001 RMK A01 T00351055  RH  051%=      5-min Rain = 0
KMC6 041104Z 24008KT 04/M05 A3001 RMK A01 T00351054  RH  052%=      5-min Rain = 0
KMC6 041105Z 24009KT 04/M05 A3001 RMK A01 T00351053  RH  052%=      5-min Rain = 0
KMC6 041106Z 24008KT 04/M05 A3001 RMK A01 T00351053  RH  052%=      5-min Rain = 0
KMC6 041107Z 24008KT 04/M05 A3001 RMK A01 T00351053  RH  052%=      5-min Rain = 0
KMC6 041108Z 24008KT 04/M05 A3001 RMK A01 T00361053  RH  052%=      5-min Rain = 0
KMC6 041109Z 24007KT 04/M05 A3001 RMK A01 T00361054  RH  052%=      5-min Rain = 0
KMC6 041110Z 24007KT 04/M05 A3001 RMK A01 T00351054  RH  052%=      5-min Rain = 0
KMC6 041111Z 24007KT 04/M06 A3001 RMK A01 T00351055  RH  052%=      5-min Rain = 0
KMC6 041112Z 24007KT 04/M06 A3001 RMK A01 T00351056  RH  052%=      5-min Rain = 0
KMC6 041113Z 24007KT 03/M06 A3001 RMK A01 T00341056  RH  051%=      5-min Rain = 0
KMC6 041114Z 25007KT 03/M06 A3001 RMK A01 T00341056  RH  051%=      5-min Rain = 0
KMC6 041115Z 26007KT 03/M06 A3001 RMK A01 T00341057  RH  051%=      5-min Rain = 0
KMC6 041116Z 26007KT 03/M06 A3001 RMK A01 T00341057  RH  051%=      5-min Rain = 0
KMC6 041117Z 26007KT 03/M06 A3001 RMK A01 T00341056  RH  052%=      5-min Rain = 0
KMC6 041118Z 26007KT 03/M06 A3001 RMK A01 T00341056  RH  052%=      5-min Rain = 0
KMC6 041119Z 26008KT 04/M06 A3002 RMK A01 T00351056  RH  052%=      5-min Rain = 0
KMC6 041120Z 26008KT 04/M06 A3002 RMK A01 T00361055  RH  051%=      5-min Rain = 0
KMC6 041121Z 25008KT 04/M05 A3002 RMK A01 T00371054  RH  051%=      5-min Rain = 0
KMC6 041122Z 25009KT 04/M05 A3002 RMK A01 T00391052  RH  051%=      5-min Rain = 0
KMC6 041123Z 26009KT 04/M05 A3002 RMK A01 T00401053  RH  051%=      5-min Rain = 0
KMC6 041124Z 26009KT 04/M05 A3002 RMK A01 T00411053  RH  051%=      5-min Rain = 0
KMC6 041125Z 26009KT 04/M05 A3002 RMK A01 T00411053  RH  051%=      5-min Rain = 0
KMC6 041126Z 26008KT 04/M05 A3002 RMK A01 T00411053  RH  051%=      5-min Rain = 0
KMC6 041127Z 26009KT 04/M05 A3002 RMK A01 T00411053  RH  051%=      5-min Rain = 0
KMC6 041128Z 26009KT 04/M05 A3002 RMK A01 T00401053  RH  051%=      5-min Rain = 0
KMC6 041129Z 26009KT 04/M05 A3002 RMK A01 T00401053  RH  051%=      5-min Rain = 0
KMC6 041130Z 26009KT 04/M05 A3002 RMK A01 T00411052  RH  051%=      5-min Rain = 0
KMC6 041131Z 26009KT 04/M05 A3002 RMK A01 T00431051  RH  051%=      5-min Rain = 0
KMC6 041132Z 26008KT 04/M05 A3002 RMK A01 T00441050  RH  050%=      5-min Rain = 0
KMC6 041133Z 26009KT 05/M05 A3002 RMK A01 T00451050  RH  050%=      5-min Rain = 0
KMC6 041134Z 27009KT 05/M05 A3001 RMK A01 T00461049  RH  050%=      5-min Rain = 0
KMC6 041135Z 27009KT 05/M05 A3001 RMK A01 T00471048  RH  050%=      5-min Rain = 0
KMC6 041136Z 27009KT 05/M05 A3001 RMK A01 T00481048  RH  050%=      5-min Rain = 0
KMC6 041137Z 27009KT 05/M05 A3001 RMK A01 T00501047  RH  050%=      5-min Rain = 0
KMC6 041138Z 27009KT 05/M05 A3001 RMK A01 T00511046  RH  049%=      5-min Rain = 0
KMC6 041139Z 26010KT 05/M05 A3002 RMK A01 T00521046  RH  049%=      5-min Rain = 0
KMC6 041140Z 27010KT 05/M05 A3002 RMK A01 T00531046  RH  049%=      5-min Rain = 0
KMC6 041141Z 27010KT 05/M05 A3002 RMK A01 T00541045  RH  049%=      5-min Rain = 0
KMC6 041142Z 26010KT 06/M05 A3002 RMK A01 T00551045  RH  049%=      5-min Rain = 0
KMC6 041143Z 26010KT 06/M05 A3002 RMK A01 T00551045  RH  048%=      5-min Rain = 0
KMC6 041144Z 26010KT 06/M04 A3002 RMK A01 T00571044  RH  048%=      5-min Rain = 0
KMC6 041145Z 27010KT 06/M04 A3002 RMK A01 T00581043  RH  048%=      5-min Rain = 0
KMC6 041146Z 27010KT 06/M04 A3002 RMK A01 T00591042  RH  048%=      5-min Rain = 0
KMC6 041147Z 27010KT 06/M04 A3002 RMK A01 T00601042  RH  048%=      5-min Rain = 0
KMC6 041148Z 27010KT 06/M04 A3002 RMK A01 T00611042  RH  048%=      5-min Rain = 0
KMC6 041149Z 27010KT 06/M04 A3002 RMK A01 T00611042  RH  047%=      5-min Rain = 0
KMC6 041150Z 27010KT 06/M04 A3002 RMK A01 T00621042  RH  047%=      5-min Rain = 0
KMC6 041151Z 27010KT 06/M04 A3002 RMK A01 T00621042  RH  047%=      5-min Rain = 0
KMC6 041152Z 27011KT 06/M04 A3002 RMK A01 T00621041  RH  047%=      5-min Rain = 0
KMC6 041153Z 27011KT 06/M04 A3002 RMK A01 T00631041  RH  047%=      5-min Rain = 0
KMC6 041154Z 27011KT 06/M04 A3002 RMK A01 T00641040  RH  047%=      5-min Rain = 0
KMC6 041155Z 27011KT 07/M04 A3002 RMK A01 T00661040  RH  047%=      5-min Rain = 0
KMC6 041156Z 26010KT 07/M04 A3002 RMK A01 T00671040  RH  046%=      5-min Rain = 0
KMC6 041157Z 27010KT 07/M04 A3002 RMK A01 T00681039  RH  046%=      5-min Rain = 0
KMC6 041158Z 27010KT 07/M04 A3002 RMK A01 T00691039  RH  046%=      5-min Rain = 0
KMC6 041159Z 27010KT 07/M04 A3002 RMK A01 T00701038  RH  046%=      5-min Rain = 0
KMC6 041200Z 27010KT 07/M04 A3002 RMK A01 T00701038  RH  046%=      5-min Rain = 0
KMC6 041201Z 27010KT 07/M04 A3002 RMK A01 T00711038  RH  046%=      5-min Rain = 0
KMC6 041202Z 27010KT 07/M04 A3002 RMK A01 T00711038  RH  046%=      5-min Rain = 0
KMC6 041203Z 27010KT 07/M04 A3002 RMK A01 T00721038  RH  046%=      5-min Rain = 0
KMC6 041204Z 27010KT 07/M04 A3002 RMK A01 T00721038  RH  045%=      5-min Rain = 0
KMC6 041205Z 27010KT 07/M04 A3002 RMK A01 T00731037  RH  045%=      5-min Rain = 0
KMC6 041206Z 27009KT 07/M04 A3002 RMK A01 T00741037  RH  045%=      5-min Rain = 0
KMC6 041207Z 27009KT 07/M04 A3002 RMK A01 T00741037  RH  045%=      5-min Rain = 0
KMC6 041208Z 26009KT 07/M04 A3002 RMK A01 T00741037  RH  045%=      5-min Rain = 0
KMC6 041209Z 26009KT 08/M04 A3002 RMK A01 T00751037  RH  045%=      5-min Rain = 0
KMC6 041210Z 26009KT 08/M04 A3002 RMK A01 T00751037  RH  045%=      5-min Rain = 0
KMC6 041211Z 26008KT 08/M04 A3002 RMK A01 T00751037  RH  045%=      5-min Rain = 0
KMC6 041212Z 26008KT 08/M04 A3002 RMK A01 T00751036  RH  045%=      5-min Rain = 0
KMC6 041213Z 26008KT 08/M04 A3002 RMK A01 T00751036  RH  045%=      5-min Rain = 0
KMC6 041214Z 26008KT 08/M04 A3002 RMK A01 T00751036  RH  045%=      5-min Rain = 0
KMC6 041215Z 26008KT 08/M04 A3002 RMK A01 T00751036  RH  045%=      5-min Rain = 0
KMC6 041216Z 26008KT 08/M04 A3002 RMK A01 T00751036  RH  045%=      5-min Rain = 0
KMC6 041217Z 26008KT 07/M04 A3001 RMK A01 T00741037  RH  045%=      5-min Rain = 0
KMC6 041218Z 27008KT 07/M04 A3001 RMK A01 T00731037  RH  045%=      5-min Rain = 0
KMC6 041219Z 26008KT 07/M04 A3001 RMK A01 T00721037  RH  046%=      5-min Rain = 0
KMC6 041220Z 26008KT 07/M04 A3001 RMK A01 T00711037  RH  046%=      5-min Rain = 0
KMC6 041221Z 27008KT 07/M04 A3001 RMK A01 T00711037  RH  046%=      5-min Rain = 0
KMC6 041222Z 27008KT 07/M04 A3001 RMK A01 T00701037  RH  046%=      5-min Rain = 0
KMC6 041223Z 26008KT 07/M04 A3001 RMK A01 T00701036  RH  047%=      5-min Rain = 0
KMC6 041224Z 27008KT 07/M04 A3001 RMK A01 T00711036  RH  047%=      5-min Rain = 0
KMC6 041225Z 26009KT 07/M04 A3001 RMK A01 T00711036  RH  047%=      5-min Rain = 0
KMC6 041226Z 26009KT 07/M04 A3001 RMK A01 T00701036  RH  047%=      5-min Rain = 0
KMC6 041227Z 26009KT 07/M04 A3001 RMK A01 T00701036  RH  047%=      5-min Rain = 0
KMC6 041228Z 26009KT 07/M04 A3001 RMK A01 T00701036  RH  047%=      5-min Rain = 0
KMC6 041229Z 26009KT 07/M04 A3001 RMK A01 T00701035  RH  047%=      5-min Rain = 0
KMC6 041230Z 26009KT 07/M04 A3001 RMK A01 T00711035  RH  047%=      5-min Rain = 0
KMC6 041231Z 25009KT 07/M04 A3001 RMK A01 T00721035  RH  047%=      5-min Rain = 0
KMC6 041232Z 26009KT 07/M03 A3001 RMK A01 T00731034  RH  047%=      5-min Rain = 0
KMC6 041233Z 26010KT 07/M03 A3001 RMK A01 T00731034  RH  047%=      5-min Rain = 0
KMC6 041234Z 26010KT 07/M03 A3002 RMK A01 T00731034  RH  047%=      5-min Rain = 0
KMC6 041235Z 26010KT 07/M03 A3002 RMK A01 T00731033  RH  047%=      5-min Rain = 0
KMC6 041236Z 26010KT 07/M03 A3002 RMK A01 T00731032  RH  047%=      5-min Rain = 0
KMC6 041237Z 26010KT 07/M03 A3002 RMK A01 T00741032  RH  047%=      5-min Rain = 0
KMC6 041238Z 26010KT 07/M03 A3002 RMK A01 T00741032  RH  047%=      5-min Rain = 0
KMC6 041239Z 26010KT 08/M03 A3002 RMK A01 T00751031  RH  047%=      5-min Rain = 0
KMC6 041240Z 27009KT 08/M03 A3002 RMK A01 T00751031  RH  047%=      5-min Rain = 0
KMC6 041241Z 27008KT 08/M03 A3002 RMK A01 T00751031  RH  047%=      5-min Rain = 0
KMC6 041242Z 27008KT 08/M03 A3001 RMK A01 T00751031  RH  047%=      5-min Rain = 0
KMC6 041243Z 27007KT 08/M03 A3001 RMK A01 T00761030  RH  047%=      5-min Rain = 0
KMC6 041244Z 27006KT 08/M03 A3001 RMK A01 T00771030  RH  047%=      5-min Rain = 0
KMC6 041245Z 27006KT 08/M03 A3001 RMK A01 T00771030  RH  047%=      5-min Rain = 0
KMC6 041246Z 28006KT 08/M03 A3001 RMK A01 T00771030  RH  046%=      5-min Rain = 0
KMC6 041247Z 28007KT 08/M03 A3001 RMK A01 T00771031  RH  046%=      5-min Rain = 0
KMC6 041248Z 28007KT 08/M03 A30 RMK A01 T00771030  RH  046%=      5-min Rain = 0
KMC6 041249Z 28007KT 08/M03 A30 RMK A01 T00771030  RH  047%=      5-min Rain = 0
KMC6 041250Z 28007KT 08/M03 A30 RMK A01 T00771030  RH  047%=      5-min Rain = 0
KMC6 041251Z 28007KT 08/M03 A30 RMK A01 T00771030  RH  047%=      5-min Rain = 0
KMC6 041252Z 28007KT 08/M03 A30 RMK A01 T00761031  RH  047%=      5-min Rain = 0
KMC6 041253Z 27007KT 08/M03 A30 RMK A01 T00761030  RH  047%=      5-min Rain = 0
KMC6 041254Z 27007KT 08/M03 A30 RMK A01 T00771030  RH  047%=      5-min Rain = 0
KMC6 041255Z 27008KT 08/M03 A30 RMK A01 T00781029  RH  047%=      5-min Rain = 0
KMC6 041256Z 27007KT 08/M03 A30 RMK A01 T00791029  RH  047%=      5-min Rain = 0
KMC6 041257Z 27006KT 08/M03 A30 RMK A01 T00791028  RH  046%=      5-min Rain = 0
KMC6 041258Z 27006KT 08/M03 A2999 RMK A01 T00801028  RH  046%=      5-min Rain = 0
KMC6 041259Z 28005KT 08/M03 A2999 RMK A01 T00811028  RH  046%=      5-min Rain = 0
KMC6 041300Z 27006KT 08/M03 A2999 RMK A01 T00811028  RH  046%=      5-min Rain = 0
KMC6 041301Z 27006KT 08/M03 A2999 RMK A01 T00811028  RH  046%=      5-min Rain = 0
KMC6 041302Z 27007KT 08/M03 A2999 RMK A01 T00811028  RH  046%=      5-min Rain = 0
KMC6 041303Z 27008KT 08/M03 A2999 RMK A01 T00811027  RH  046%=      5-min Rain = 0
KMC6 041304Z 26009KT 08/M03 A30 RMK A01 T00811028  RH  046%=      5-min Rain = 0
KMC6 041305Z 26008KT 08/M03 A30 RMK A01 T00811027  RH  046%=      5-min Rain = 0
KMC6 041306Z 26008KT 08/M03 A30 RMK A01 T00801028  RH  047%=      5-min Rain = 0
KMC6 041307Z 26008KT 08/M03 A30 RMK A01 T00791029  RH  047%=      5-min Rain = 0
KMC6 041308Z 26008KT 08/M03 A30 RMK A01 T00791029  RH  047%=      5-min Rain = 0
KMC6 041309Z 25009KT 08/M03 A30 RMK A01 T00791028  RH  047%=      5-min Rain = 0
KMC6 041310Z 26009KT 08/M03 A30 RMK A01 T00791028  RH  047%=      5-min Rain = 0
KMC6 041311Z 26009KT 08/M03 A30 RMK A01 T00801028  RH  047%=      5-min Rain = 0
KMC6 041312Z 26009KT 08/M03 A30 RMK A01 T00801027  RH  047%=      5-min Rain = 0
KMC6 041313Z 26009KT 08/M03 A30 RMK A01 T00801026  RH  047%=      5-min Rain = 0
KMC6 041314Z 26009KT 08/M03 A30 RMK A01 T00811025  RH  047%=      5-min Rain = 0
KMC6 041315Z 26008KT 08/M03 A30 RMK A01 T00811025  RH  047%=      5-min Rain = 0
KMC6 041316Z 25009KT 08/M03 A30 RMK A01 T00811026  RH  047%=      5-min Rain = 0
KMC6 041317Z 25009KT 08/M03 A3001 RMK A01 T00811026  RH  047%=      5-min Rain = 0
KMC6 041318Z 25009KT 08/M03 A3001 RMK A01 T00801027  RH  047%=      5-min Rain = 0
KMC6 041319Z 25008KT 08/M03 A3001 RMK A01 T00791026  RH  047%=      5-min Rain = 0
KMC6 041320Z 25008KT 08/M03 A3001 RMK A01 T00791026  RH  047%=      5-min Rain = 0
KMC6 041321Z 26009KT 08/M03 A3001 RMK A01 T00791026  RH  047%=      5-min Rain = 0
KMC6 041322Z 26008KT 08/M03 A3001 RMK A01 T00781027  RH  047%=      5-min Rain = 0
KMC6 041323Z 26008KT 08/M03 A3001 RMK A01 T00781027  RH  047%=      5-min Rain = 0
KMC6 041324Z 26008KT 08/M03 A3001 RMK A01 T00781027  RH  048%=      5-min Rain = 0
KMC6 041325Z 26007KT 08/M03 A3001 RMK A01 T00771027  RH  048%=      5-min Rain = 0
KMC6 041326Z 26007KT 08/M03 A30 RMK A01 T00761027  RH  048%=      5-min Rain = 0
KMC6 041327Z 26007KT 08/M03 A30 RMK A01 T00761027  RH  048%=      5-min Rain = 0
KMC6 041328Z 25007KT 08/M03 A30 RMK A01 T00751027  RH  048%=      5-min Rain = 0
KMC6 041329Z 26007KT 08/M03 A30 RMK A01 T00751027  RH  048%=      5-min Rain = 0
KMC6 041330Z 26007KT 08/M03 A30 RMK A01 T00751027  RH  048%=      5-min Rain = 0
KMC6 041331Z 26007KT 08/M03 A30 RMK A01 T00751027  RH  048%=      5-min Rain = 0
KMC6 041332Z 26008KT 08/M03 A30 RMK A01 T00751027  RH  048%=      5-min Rain = 0
KMC6 041333Z 25008KT 08/M03 A3001 RMK A01 T00751027  RH  049%=      5-min Rain = 0
KMC6 041334Z 25008KT 07/M03 A3001 RMK A01 T00741027  RH  049%=      5-min Rain = 0
KMC6 041335Z 25009KT 07/M03 A3001 RMK A01 T00741026  RH  049%=      5-min Rain = 0
KMC6 041336Z 25007KT 07/M03 A3001 RMK A01 T00731026  RH  049%=      5-min Rain = 0
KMC6 041337Z 25007KT 07/M03 A3001 RMK A01 T00731026  RH  049%=      5-min Rain = 0
KMC6 041338Z 26007KT 07/M03 A3001 RMK A01 T00731026  RH  050%=      5-min Rain = 0
KMC6 041339Z 25007KT 07/M03 A3001 RMK A01 T00721026  RH  050%=      5-min Rain = 0
KMC6 041340Z 25007KT 07/M03 A30 RMK A01 T00721025  RH  050%=      5-min Rain = 0
KMC6 041341Z 25006KT 07/M03 A30 RMK A01 T00721025  RH  050%=      5-min Rain = 0
KMC6 041342Z 26006KT 07/M03 A30 RMK A01 T00731025  RH  050%=      5-min Rain = 0
KMC6 041343Z 26006KT 07/M02 A30 RMK A01 T00731024  RH  050%=      5-min Rain = 0
KMC6 041344Z 25006KT 07/M02 A30 RMK A01 T00741024  RH  050%=      5-min Rain = 0
KMC6 041345Z 25006KT 08/M02 A3001 RMK A01 T00751024  RH  050%=      5-min Rain = 0
KMC6 041346Z 25007KT 08/M02 A3001 RMK A01 T00751023  RH  050%=      5-min Rain = 0
KMC6 041347Z 25007KT 08/M02 A3001 RMK A01 T00761022  RH  050%=      5-min Rain = 0
KMC6 041348Z 25007KT 08/M02 A3001 RMK A01 T00761021  RH  050%=      5-min Rain = 0
KMC6 041349Z 24007KT 08/M02 A30 RMK A01 T00771021  RH  050%=      5-min Rain = 0
KMC6 041350Z 24006KT 08/M02 A30 RMK A01 T00771020  RH  050%=      5-min Rain = 0
KMC6 041351Z 24006KT 08/M02 A30 RMK A01 T00781020  RH  050%=      5-min Rain = 0
KMC6 041352Z 24007KT 08/M02 A3001 RMK A01 T00791019  RH  050%=      5-min Rain = 0
KMC6 041353Z 24007KT 08/M02 A3001 RMK A01 T00801018  RH  050%=      5-min Rain = 0
KMC6 041354Z 23008KT 08/M02 A3001 RMK A01 T00801017  RH  050%=      5-min Rain = 0
KMC6 041355Z 23007KT 08/M02 A3001 RMK A01 T00811016  RH  050%=      5-min Rain = 0
KMC6 041356Z 23006KT 08/M02 A3001 RMK A01 T00821015  RH  050%=      5-min Rain = 0
KMC6 041357Z 23006KT 08/M01 A3001 RMK A01 T00821014  RH  051%=      5-min Rain = 0
KMC6 041358Z 23006KT 08/M01 A3001 RMK A01 T00821014  RH  051%=      5-min Rain = 0
KMC6 041359Z 23005KT 08/M01 A3001 RMK A01 T00821013  RH  051%=      5-min Rain = 0
KMC6 041400Z 23004KT 08/M01 A3001 RMK A01 T00821013  RH  051%=      5-min Rain = 0
KMC6 041401Z 24004KT 08/M01 A3001 RMK A01 T00831013  RH  051%=      5-min Rain = 0
KMC6 041402Z 24004KT 08/M01 A3001 RMK A01 T00831013  RH  051%=      5-min Rain = 0
KMC6 041403Z 24004KT 08/M01 A3001 RMK A01 T00831013  RH  051%=      5-min Rain = 0
KMC6 041404Z 24005KT 08/M01 A3001 RMK A01 T00841013  RH  051%=      5-min Rain = 0
KMC6 041405Z 24005KT 08/M01 A3001 RMK A01 T00841013  RH  050%=      5-min Rain = 0
KMC6 041406Z 24005KT 09/M01 A3001 RMK A01 T00851013  RH  050%=      5-min Rain = 0
KMC6 041407Z 25005KT 09/M01 A3001 RMK A01 T00851013  RH  050%=      5-min Rain = 0
KMC6 041408Z 25005KT 09/M01 A3001 RMK A01 T00861012  RH  050%=      5-min Rain = 0
KMC6 041409Z 25005KT 09/M01 A30 RMK A01 T00861012  RH  050%=      5-min Rain = 0
KMC6 041410Z 25005KT 09/M01 A30 RMK A01 T00871012  RH  050%=      5-min Rain = 0
KMC6 041411Z 24005KT 09/M01 A30 RMK A01 T00871011  RH  050%=      5-min Rain = 0
KMC6 041412Z 23006KT 09/M01 A30 RMK A01 T00871011  RH  050%=      5-min Rain = 0
KMC6 041413Z 23006KT 09/M01 A30 RMK A01 T00881011  RH  050%=      5-min Rain = 0
KMC6 041414Z 22007KT 09/M01 A30 RMK A01 T00881010  RH  050%=      5-min Rain = 0
KMC6 041415Z 22007KT 09/M01 A30 RMK A01 T00881011  RH  050%=      5-min Rain = 0
KMC6 041416Z 22007KT 09/M01 A30 RMK A01 T00881011  RH  050%=      5-min Rain = 0
KMC6 041417Z 22007KT 09/M01 A30 RMK A01 T00891011  RH  050%=      5-min Rain = 0
KMC6 041418Z 22007KT 09/M01 A30 RMK A01 T00901010  RH  049%=      5-min Rain = 0
KMC6 041419Z 22007KT 09/M01 A30 RMK A01 T00911010  RH  049%=      5-min Rain = 0
KMC6 041420Z 22006KT 09/M01 A30 RMK A01 T00921009  RH  049%=      5-min Rain = 0
KMC6 041421Z 22006KT 09/M01 A30 RMK A01 T00931009  RH  049%=      5-min Rain = 0
KMC6 041422Z 22005KT 09/M01 A30 RMK A01 T00931008  RH  049%=      5-min Rain = 0
KMC6 041423Z 22005KT 09/M01 A30 RMK A01 T00941008  RH  049%=      5-min Rain = 0
KMC6 041424Z 22005KT 10/M01 A30 RMK A01 T00951005  RH  049%=      5-min Rain = 0
KMC6 041425Z 22005KT 10/M00 A30 RMK A01 T00961003  RH  050%=      5-min Rain = 0
KMC6 041426Z 21005KT 10/M01 A30 RMK A01 T00971005  RH  049%=      5-min Rain = 0
KMC6 041427Z 21005KT 10/M01 A30 RMK A01 T00971005  RH  049%=      5-min Rain = 0
KMC6 041428Z 21005KT 10/M01 A30 RMK A01 T00971005  RH  049%=      5-min Rain = 0
KMC6 041429Z 21005KT 10/M00 A30 RMK A01 T00971004  RH  049%=      5-min Rain = 0
KMC6 041430Z 21005KT 10/M00 A30 RMK A01 T00971003  RH  050%=      5-min Rain = 0
KMC6 041431Z 21005KT 10/M00 A30 RMK A01 T00971004  RH  050%=      5-min Rain = 0
KMC6 041432Z 21005KT 10/M00 A30 RMK A01 T00971003  RH  050%=      5-min Rain = 0
KMC6 041433Z 21005KT 10/M00 A30 RMK A01 T00991002  RH  049%=      5-min Rain = 0
KMC6 041434Z 21005KT 10/00 A30 RMK A01 T01020001  RH  050%=      5-min Rain = 0
KMC6 041435Z 20005KT 11/00 A30 RMK A01 T01050003  RH  049%=      5-min Rain = 0
KMC6 041436Z 19005KT 11/00 A30 RMK A01 T01070004  RH  049%=      5-min Rain = 0
KMC6 041437Z 20005KT 11/01 A2999 RMK A01 T01100007  RH  049%=      5-min Rain = 0
KMC6 041438Z 20005KT 11/01 A2999 RMK A01 T01130008  RH  048%=      5-min Rain = 0
KMC6 041439Z 19006KT 12/01 A2999 RMK A01 T01150007  RH  047%=      5-min Rain = 0
KMC6 041440Z 19005KT 12/01 A2999 RMK A01 T01160005  RH  047%=      5-min Rain = 0
KMC6 041441Z 19005KT 12/01 A2999 RMK A01 T01160005  RH  046%=      5-min Rain = 0
KMC6 041442Z 20007KT 12/00 A2999 RMK A01 T01160004  RH  046%=      5-min Rain = 0
KMC6 041443Z 20008KT 12/00 A2999 RMK A01 T01160003  RH  046%=      5-min Rain = 0
KMC6 041444Z 20008KT 12/00 A2999 RMK A01 T01160003  RH  046%=      5-min Rain = 0
KMC6 041445Z 20007KT 12/00 A30 RMK A01 T01150004  RH  046%=      5-min Rain = 0
KMC6 041446Z 20008KT 12/00 A30 RMK A01 T01150003  RH  046%=      5-min Rain = 0
KMC6 041447Z 20010KT 11/00 A30 RMK A01 T01140003  RH  046%=      5-min Rain = 0
KMC6 041448Z 20010KT 12/01 A30 RMK A01 T01160005  RH  046%=      5-min Rain = 0
KMC6 041449Z 20009KT 12/01 A30 RMK A01 T01180006  RH  046%=      5-min Rain = 0
KMC6 041450Z 20009KT 12/01 A30 RMK A01 T01190007  RH  046%=      5-min Rain = 0
KMC6 041451Z 20009KT 12/01 A30 RMK A01 T01210006  RH  045%=      5-min Rain = 0
KMC6 041452Z 19008KT 12/01 A30 RMK A01 T01210006  RH  045%=      5-min Rain = 0
KMC6 041453Z 19009KT 12/01 A2999 RMK A01 T01210007  RH  046%=      5-min Rain = 0
KMC6 041454Z 19010KT 12/01 A30 RMK A01 T01220008  RH  046%=      5-min Rain = 0
KMC6 041455Z 18009KT 12/01 A30 RMK A01 T01230008  RH  046%=      5-min Rain = 0
KMC6 041456Z 18011KT 12/01 A30 RMK A01 T01240010  RH  046%=      5-min Rain = 0
KMC6 041457Z 18010KT 13/01 A30 RMK A01 T01250012  RH  046%=      5-min Rain = 0
KMC6 041458Z 19010KT 13/01 A30 RMK A01 T01270011  RH  045%=      5-min Rain = 0
KMC6 041459Z 19010KT 13/01 A30 RMK A01 T01270011  RH  045%=      5-min Rain = 0
KMC6 041500Z 19009KT 13/01 A30 RMK A01 T01280011  RH  045%=      5-min Rain = 0
KMC6 041501Z 19010KT 13/01 A30 RMK A01 T01280013  RH  045%=      5-min Rain = 0
KMC6 041502Z 18011KT 13/01 A30 RMK A01 T01290012  RH  045%=      5-min Rain = 0
KMC6 041503Z 19009KT 13/01 A30 RMK A01 T01290012  RH  045%=      5-min Rain = 0
KMC6 041504Z 18009KT 13/01 A30 RMK A01 T01300014  RH  045%=      5-min Rain = 0
KMC6 041505Z 19010KT 13/02 A30 RMK A01 T01320015  RH  045%=      5-min Rain = 0
KMC6 041506Z 18010KT 13/01 A30 RMK A01 T01330013  RH  044%=      5-min Rain = 0
KMC6 041507Z 19010KT 13/01 A30 RMK A01 T01330013  RH  044%=      5-min Rain = 0
KMC6 041508Z 19010KT 13/01 A30 RMK A01 T01340013  RH  044%=      5-min Rain = 0
KMC6 041509Z 19010KT 13/01 A30 RMK A01 T01340013  RH  044%=      5-min Rain = 0
KMC6 041510Z 20011KT 13/01 A30 RMK A01 T01340013  RH  044%=      5-min Rain = 0
KMC6 041511Z 20010KT 14/01 A30 RMK A01 T01350014  RH  044%=      5-min Rain = 0
KMC6 041512Z 20010KT 14/01 A3001 RMK A01 T01360014  RH  043%=      5-min Rain = 0
KMC6 041513Z 20009KT 14/01 A3001 RMK A01 T01370013  RH  043%=      5-min Rain = 0
KMC6 041514Z 21008KT 14/01 A3001 RMK A01 T01380014  RH  043%=      5-min Rain = 0
KMC6 041515Z 21008KT 14/01 A3001 RMK A01 T01380014  RH  043%=      5-min Rain = 0
KMC6 041516Z 20008KT 14/02 A3001 RMK A01 T01390015  RH  043%=      5-min Rain = 0
KMC6 041517Z 20009KT 14/02 A3001 RMK A01 T01390015  RH  043%=      5-min Rain = 0
KMC6 041518Z 20009KT 14/01 A3001 RMK A01 T01380013  RH  042%=      5-min Rain = 0
KMC6 041519Z 20010KT 14/01 A3001 RMK A01 T01380014  RH  043%=      5-min Rain = 0
KMC6 041520Z 20010KT 14/01 A3001 RMK A01 T01380012  RH  042%=      5-min Rain = 0
KMC6 041521Z 20010KT 14/01 A3001 RMK A01 T01380011  RH  042%=      5-min Rain = 0
KMC6 041522Z 21011KT 14/01 A3001 RMK A01 T01380010  RH  042%=      5-min Rain = 0
KMC6 041523Z 20011KT 14/01 A3001 RMK A01 T01360010  RH  042%=      5-min Rain = 0
KMC6 041524Z 19010KT 14/01 A3001 RMK A01 T01360011  RH  043%=      5-min Rain = 0
KMC6 041525Z 19009KT 14/01 A3001 RMK A01 T01350011  RH  043%=      5-min Rain = 0
KMC6 041526Z 19009KT 14/01 A3001 RMK A01 T01350012  RH  043%=      5-min Rain = 0
KMC6 041527Z 18009KT 14/01 A3001 RMK A01 T01350012  RH  043%=      5-min Rain = 0
KMC6 041528Z 18009KT 14/01 A30 RMK A01 T01350012  RH  043%=      5-min Rain = 0
KMC6 041529Z 18009KT 14/01 A3001 RMK A01 T01350012  RH  043%=      5-min Rain = 0
KMC6 041530Z 18009KT 14/01 A3001 RMK A01 T01360013  RH  043%=      5-min Rain = 0
KMC6 041531Z 19010KT 14/01 A3001 RMK A01 T01370014  RH  043%=      5-min Rain = 0
KMC6 041532Z 19009KT 14/01 A3001 RMK A01 T01380014  RH  043%=      5-min Rain = 0
KMC6 041533Z 19009KT 14/02 A3001 RMK A01 T01410017  RH  043%=      5-min Rain = 0
KMC6 041534Z 19008KT 14/02 A3001 RMK A01 T01420017  RH  043%=      5-min Rain = 0
KMC6 041535Z 19009KT 15/02 A3001 RMK A01 T01450019  RH  043%=      5-min Rain = 0
KMC6 041536Z 19008KT 15/02 A3001 RMK A01 T01460017  RH  041%=      5-min Rain = 0
KMC6 041537Z 19010KT 15/02 A3001 RMK A01 T01470019  RH  042%=      5-min Rain = 0
KMC6 041538Z 19011KT 15/02 A3001 RMK A01 T01490019  RH  041%=      5-min Rain = 0
KMC6 041539Z 19011KT 15/02 A3001 RMK A01 T01510019  RH  041%=      5-min Rain = 0
KMC6 041540Z 19010KT 15/02 A30 RMK A01 T01530019  RH  040%=      5-min Rain = 0
KMC6 041541Z 19009KT 15/02 A30 RMK A01 T01540020  RH  040%=      5-min Rain = 0
KMC6 041542Z 18010KT 15/02 A30 RMK A01 T01540020  RH  040%=      5-min Rain = 0
KMC6 041543Z 19012KT 16/02 A30 RMK A01 T01550020  RH  040%=      5-min Rain = 0
KMC6 041544Z 19012KT 15/02 A30 RMK A01 T01540017  RH  040%=      5-min Rain = 0
KMC6 041545Z 20012KT 15/02 A30 RMK A01 T01530019  RH  040%=      5-min Rain = 0
KMC6 041546Z 19013KT 16/02 A30 RMK A01 T01560021  RH  040%=      5-min Rain = 0
KMC6 041547Z 19014KT 16/02 A30 RMK A01 T01570020  RH  039%=      5-min Rain = 0
KMC6 041548Z 19014KT 16/02 A30 RMK A01 T01570019  RH  039%=      5-min Rain = 0
KMC6 041549Z 19015KT 16/02 A30 RMK A01 T01570019  RH  039%=      5-min Rain = 0
KMC6 041550Z 19014KT 16/02 A30 RMK A01 T01570018  RH  039%=      5-min Rain = 0
KMC6 041551Z 20016KT 16/02 A30 RMK A01 T01570019  RH  039%=      5-min Rain = 0
KMC6 041552Z 19014KT 16/02 A30 RMK A01 T01560016  RH  039%=      5-min Rain = 0
KMC6 041553Z 18015KT 16/02 A30 RMK A01 T01550017  RH  039%=      5-min Rain = 0
KMC6 041554Z 18015KT 16/02 A30 RMK A01 T01550017  RH  039%=      5-min Rain = 0
KMC6 041555Z 19014KT 16/02 A30 RMK A01 T01550018  RH  040%=      5-min Rain = 0
KMC6 041556Z 19017KT 16/02 A30 RMK A01 T01560018  RH  039%=      5-min Rain = 0
KMC6 041557Z 19017KT 16/02 A30 RMK A01 T01560018  RH  039%=      5-min Rain = 0
KMC6 041558Z 19014KT 16/02 A30 RMK A01 T01560017  RH  039%=      5-min Rain = 0
KMC6 041559Z 18014KT 16/02 A30 RMK A01 T01570019  RH  039%=      5-min Rain = 0
KMC6 041600Z 19015KT 16/02 A2999 RMK A01 T01590019  RH  039%=      5-min Rain = 0
KMC6 041601Z 18013KT 16/02 A2999 RMK A01 T01570017  RH  039%=      5-min Rain = 0
KMC6 041602Z 18015KT 16/02 A2999 RMK A01 T01560018  RH  039%=      5-min Rain = 0
KMC6 041603Z 18015KT 16/02 A2999 RMK A01 T01550018  RH  040%=      5-min Rain = 0
KMC6 041604Z 18015KT 15/02 A2999 RMK A01 T01540017  RH  040%=      5-min Rain = 0
KMC6 041605Z 18016KT 15/02 A2999 RMK A01 T01540018  RH  040%=      5-min Rain = 0
KMC6 041606Z 18015KT 16/02 A2999 RMK A01 T01550022  RH  041%=      5-min Rain = 0
KMC6 041607Z 18016KT 16/03 A2999 RMK A01 T01600026  RH  040%=      5-min Rain = 0
KMC6 041608Z 18017KT 16/02 A2999 RMK A01 T01610023  RH  039%=      5-min Rain = 0
KMC6 041609Z 19016KT 16/02 A2999 RMK A01 T01610021  RH  039%=      5-min Rain = 0
KMC6 041610Z 19016KT 16/02 A2999 RMK A01 T01580020  RH  039%=      5-min Rain = 0
KMC6 041611Z 19017KT 16/02 A2999 RMK A01 T01560021  RH  040%=      5-min Rain = 0
KMC6 041612Z 19020KT 16/02 A2999 RMK A01 T01560020  RH  040%=      5-min Rain = 0
KMC6 041613Z 19018KT 16/02 A2999 RMK A01 T01550021  RH  040%=      5-min Rain = 0
KMC6 041614Z 19017KT 16/02 A2999 RMK A01 T01550021  RH  040%=      5-min Rain = 0
KMC6 041615Z 20017KT 16/02 A2999 RMK A01 T01560022  RH  040%=      5-min Rain = 0
KMC6 041616Z 19017KT 16/02 A2999 RMK A01 T01570023  RH  040%=      5-min Rain = 0
KMC6 041617Z 19017KT 16/02 A2999 RMK A01 T01590024  RH  040%=      5-min Rain = 0
KMC6 041618Z 18020KT 16/03 A2999 RMK A01 T01620026  RH  040%=      5-min Rain = 0
KMC6 041619Z 19018KT 16/02 A2999 RMK A01 T01610021  RH  039%=      5-min Rain = 0
KMC6 041620Z 20018KT 16/02 A2999 RMK A01 T01580022  RH  040%=      5-min Rain = 0
KMC6 041621Z 20019KT 16/02 A2999 RMK A01 T01580021  RH  040%=      5-min Rain = 0
KMC6 041622Z 20017KT 16/02 A2999 RMK A01 T01570021  RH  040%=      5-min Rain = 0
KMC6 041623Z 20016KT 16/02 A2999 RMK A01 T01580023  RH  040%=      5-min Rain = 0
KMC6 041624Z 20016KT 16/02 A2999 RMK A01 T01580021  RH  040%=      5-min Rain = 0
KMC6 041625Z 19016KT 16/02 A2999 RMK A01 T01580023  RH  040%=      5-min Rain = 0
KMC6 041626Z 18014KT 16/02 A2999 RMK A01 T01590023  RH  040%=      5-min Rain = 0
KMC6 041627Z 19014KT 16/02 A2999 RMK A01 T01600024  RH  040%=      5-min Rain = 0
KMC6 041628Z 20016KT 16/02 A2999 RMK A01 T01610023  RH  039%=      5-min Rain = 0
KMC6 041629Z 19013KT 16/02 A2999 RMK A01 T01600022  RH  039%=      5-min Rain = 0
KMC6 041630Z 19014KT 16/02 A2999 RMK A01 T01590023  RH  040%=      5-min Rain = 0
KMC6 041631Z 18014KT 16/02 A2999 RMK A01 T01580022  RH  040%=      5-min Rain = 0
KMC6 041632Z 18013KT 16/02 A2999 RMK A01 T01560022  RH  040%=      5-min Rain = 0
KMC6 041633Z 18014KT 16/02 A2999 RMK A01 T01560022  RH  040%=      5-min Rain = 0
KMC6 041634Z 19015KT 16/02 A2999 RMK A01 T01560022  RH  040%=      5-min Rain = 0
KMC6 041635Z 19014KT 16/02 A2999 RMK A01 T01550022  RH  041%=      5-min Rain = 0
KMC6 041636Z 18014KT 16/02 A2999 RMK A01 T01550022  RH  041%=      5-min Rain = 0
KMC6 041637Z 19014KT 16/02 A2999 RMK A01 T01560023  RH  041%=      5-min Rain = 0
KMC6 041638Z 20014KT 16/02 A2999 RMK A01 T01570023  RH  041%=      5-min Rain = 0
KMC6 041639Z 20015KT 16/02 A2999 RMK A01 T01570023  RH  040%=      5-min Rain = 0
KMC6 041640Z 20014KT 16/02 A2999 RMK A01 T01570023  RH  040%=      5-min Rain = 0
KMC6 041641Z 19013KT 16/02 A2999 RMK A01 T01560023  RH  041%=      5-min Rain = 0
KMC6 041642Z 18012KT 16/03 A2999 RMK A01 T01580026  RH  041%=      5-min Rain = 0
KMC6 041643Z 18013KT 16/03 A2999 RMK A01 T01610027  RH  041%=      5-min Rain = 0
KMC6 041644Z 19013KT 16/03 A2999 RMK A01 T01610026  RH  040%=      5-min Rain = 0
KMC6 041645Z 18013KT 16/03 A2999 RMK A01 T01610026  RH  040%=      5-min Rain = 0
KMC6 041646Z 18013KT 16/03 A2999 RMK A01 T01610026  RH  040%=      5-min Rain = 0
KMC6 041647Z 19013KT 16/03 A2999 RMK A01 T01610027  RH  040%=      5-min Rain = 0
KMC6 041648Z 18012KT 16/03 A2999 RMK A01 T01630027  RH  040%=      5-min Rain = 0
KMC6 041649Z 18014KT 16/03 A2999 RMK A01 T01640026  RH  039%=      5-min Rain = 0
KMC6 041650Z 17012KT 16/03 A2999 RMK A01 T01630026  RH  040%=      5-min Rain = 0
KMC6 041651Z 18014KT 16/03 A2999 RMK A01 T01620025  RH  040%=      5-min Rain = 0
KMC6 041652Z 18014KT 16/02 A2999 RMK A01 T01610024  RH  040%=      5-min Rain = 0
KMC6 041653Z 18012KT 16/02 A2999 RMK A01 T01600024  RH  040%=      5-min Rain = 0
KMC6 041654Z 18013KT 16/03 A2999 RMK A01 T01590025  RH  040%=      5-min Rain = 0
KMC6 041655Z 18013KT 16/03 A2999 RMK A01 T01600025  RH  040%=      5-min Rain = 0
KMC6 041656Z 18012KT 16/03 A2999 RMK A01 T01600025  RH  040%=      5-min Rain = 0
KMC6 041657Z 18011KT 16/03 A2999 RMK A01 T01600026  RH  040%=      5-min Rain = 0
KMC6 041658Z 17010KT 16/03 A2999 RMK A01 T01610026  RH  040%=      5-min Rain = 0
KMC6 041659Z 17011KT 16/03 A2998 RMK A01 T01610027  RH  040%=      5-min Rain = 0
KMC6 041700Z 16012KT 16/03 A2998 RMK A01 T01620027  RH  040%=      5-min Rain = 0
KMC6 041701Z 16014KT 16/03 A2998 RMK A01 T01620026  RH  040%=      5-min Rain = 0
KMC6 041702Z 17012KT 16/03 A2998 RMK A01 T01610025  RH  040%=      5-min Rain = 0
KMC6 041703Z 18011KT 16/03 A2998 RMK A01 T01600025  RH  040%=      5-min Rain = 0
KMC6 041704Z 18013KT 16/03 A2998 RMK A01 T01600026  RH  041%=      5-min Rain = 0
KMC6 041705Z 18013KT 16/03 A2998 RMK A01 T01620026  RH  040%=      5-min Rain = 0
KMC6 041706Z 18013KT 16/03 A2998 RMK A01 T01620025  RH  040%=      5-min Rain = 0
KMC6 041707Z 17013KT 16/03 A2998 RMK A01 T01620026  RH  040%=      5-min Rain = 0
KMC6 041708Z 18012KT 16/03 A2998 RMK A01 T01620026  RH  040%=      5-min Rain = 0
KMC6 041709Z 18013KT 16/03 A2998 RMK A01 T01620026  RH  040%=      5-min Rain = 0
KMC6 041710Z 18011KT 16/03 A2998 RMK A01 T01620026  RH  040%=      5-min Rain = 0
KMC6 041711Z 18013KT 16/03 A2998 RMK A01 T01620026  RH  040%=      5-min Rain = 0
KMC6 041712Z 17012KT 16/03 A2998 RMK A01 T01630027  RH  040%=      5-min Rain = 0
KMC6 041713Z 18012KT 17/03 A2998 RMK A01 T01660028  RH  040%=      5-min Rain = 0
KMC6 041714Z 18015KT 17/03 A2998 RMK A01 T01650026  RH  039%=      5-min Rain = 0
KMC6 041715Z 17014KT 16/02 A2998 RMK A01 T01640024  RH  039%=      5-min Rain = 0
KMC6 041716Z 18012KT 16/03 A2998 RMK A01 T01640025  RH  039%=      5-min Rain = 0
KMC6 041717Z 18011KT 16/03 A2998 RMK A01 T01630025  RH  039%=      5-min Rain = 0
KMC6 041718Z 17013KT 17/03 A2998 RMK A01 T01660031  RH  040%=      5-min Rain = 0
KMC6 041719Z 18014KT 17/03 A2997 RMK A01 T01690027  RH  038%=      5-min Rain = 0
KMC6 041720Z 17013G18KT 17/03 A2997 RMK A01 T01690027  RH  038%=      5-min Rain = 0
KMC6 041721Z 16013KT 17/03 A2997 RMK A01 T01700026  RH  038%=      5-min Rain = 0
KMC6 041722Z 17013KT 17/03 A2997 RMK A01 T01730030  RH  038%=      5-min Rain = 0
KMC6 041723Z 18011KT 18/03 A2997 RMK A01 T01760028  RH  037%=      5-min Rain = 0
KMC6 041724Z 18012KT 18/03 A2997 RMK A01 T01760027  RH  037%=      5-min Rain = 0
KMC6 041725Z 17012KT 18/03 A2997 RMK A01 T01760029  RH  037%=      5-min Rain = 0
KMC6 041726Z 17013KT 18/03 A2997 RMK A01 T01780030  RH  037%=      5-min Rain = 0
KMC6 041727Z 18013KT 18/03 A2997 RMK A01 T01790029  RH  037%=      5-min Rain = 0
KMC6 041728Z 18013KT 18/03 A2997 RMK A01 T01780027  RH  036%=      5-min Rain = 0
KMC6 041729Z 18014KT 18/03 A2997 RMK A01 T01760028  RH  037%=      5-min Rain = 0
KMC6 041730Z 18014KT 18/03 A2997 RMK A01 T01770028  RH  037%=      5-min Rain = 0
KMC6 041731Z 18013G18KT 18/03 A2997 RMK A01 T01760025  RH  036%=      5-min Rain = 0
KMC6 041732Z 18013KT 17/03 A2997 RMK A01 T01730025  RH  037%=      5-min Rain = 0
KMC6 041733Z 18011KT 17/02 A2997 RMK A01 T01730024  RH  037%=      5-min Rain = 0
KMC6 041734Z 18011KT 17/02 A2997 RMK A01 T01720023  RH  037%=      5-min Rain = 0
KMC6 041735Z 17011KT 17/03 A2997 RMK A01 T01720025  RH  037%=      5-min Rain = 0
KMC6 041736Z 18013KT 17/02 A2997 RMK A01 T01720024  RH  037%=      5-min Rain = 0
KMC6 041737Z 18012KT 17/03 A2997 RMK A01 T01710025  RH  038%=      5-min Rain = 0
KMC6 041738Z 17009KT 17/03 A2997 RMK A01 T01700025  RH  038%=      5-min Rain = 0
KMC6 041739Z 16010KT 17/03 A2997 RMK A01 T01700026  RH  038%=      5-min Rain = 0
KMC6 041740Z 16010KT 17/02 A2997 RMK A01 T01700024  RH  037%=      5-min Rain = 0
KMC6 041741Z 17013KT 17/02 A2997 RMK A01 T01680024  RH  038%=      5-min Rain = 0
KMC6 041742Z 17011KT 17/03 A2997 RMK A01 T01680026  RH  038%=      5-min Rain = 0
KMC6 041743Z 17011KT 17/03 A2997 RMK A01 T01700026  RH  038%=      5-min Rain = 0
KMC6 041744Z 16012KT 17/03 A2997 RMK A01 T01710028  RH  038%=      5-min Rain = 0
KMC6 041745Z 18013KT 17/03 A2997 RMK A01 T01740028  RH  038%=      5-min Rain = 0
KMC6 041746Z 17012KT 18/03 A2997 RMK A01 T01750027  RH  037%=      5-min Rain = 0
KMC6 041747Z 16012KT 17/03 A2997 RMK A01 T01730026  RH  037%=      5-min Rain = 0
KMC6 041748Z 16011KT 17/03 A2997 RMK A01 T01720025  RH  037%=      5-min Rain = 0
KMC6 041749Z 17010KT 17/03 A2997 RMK A01 T01710025  RH  038%=      5-min Rain = 0
KMC6 041750Z 18009KT 17/03 A2997 RMK A01 T01710025  RH  038%=      5-min Rain = 0
KMC6 041751Z 15010KT 17/03 A2997 RMK A01 T01710026  RH  038%=      5-min Rain = 0
KMC6 041752Z 16012KT 17/03 A2997 RMK A01 T01720028  RH  038%=      5-min Rain = 0
KMC6 041753Z 16009KT 17/03 A2997 RMK A01 T01730026  RH  037%=      5-min Rain = 0
KMC6 041754Z 16011KT 17/03 A2997 RMK A01 T01730026  RH  037%=      5-min Rain = 0
KMC6 041755Z 16010KT 17/03 A2997 RMK A01 T01720025  RH  037%=      5-min Rain = 0
KMC6 041756Z 17011KT 17/03 A2996 RMK A01 T01720026  RH  038%=      5-min Rain = 0
KMC6 041757Z 16011KT 17/03 A2996 RMK A01 T01730027  RH  038%=      5-min Rain = 0
KMC6 041758Z 16011KT 18/03 A2996 RMK A01 T01750028  RH  037%=      5-min Rain = 0
KMC6 041759Z 16014KT 18/03 A2996 RMK A01 T01760026  RH  037%=      5-min Rain = 0
KMC6 041800Z 16011KT 17/03 A2996 RMK A01 T01740025  RH  037%=      5-min Rain = 0
KMC6 041801Z 16014KT 17/03 A2996 RMK A01 T01740027  RH  037%=      5-min Rain = 0
KMC6 041802Z 16013KT 18/03 A2996 RMK A01 T01750026  RH  037%=      5-min Rain = 0
KMC6 041803Z 16012KT 18/03 A2996 RMK A01 T01750026  RH  037%=      5-min Rain = 0
KMC6 041804Z 16013KT 18/03 A2996 RMK A01 T01750026  RH  037%=      5-min Rain = 0
KMC6 041805Z 16012KT 18/03 A2996 RMK A01 T01760027  RH  037%=      5-min Rain = 0
KMC6 041806Z 17011KT 18/03 A2996 RMK A01 T01760028  RH  037%=      5-min Rain = 0
KMC6 041807Z 16011KT 18/03 A2996 RMK A01 T01760028  RH  037%=      5-min Rain = 0
KMC6 041808Z 16011KT 18/03 A2996 RMK A01 T01770028  RH  037%=      5-min Rain = 0
KMC6 041809Z 16012KT 18/03 A2996 RMK A01 T01770029  RH  037%=      5-min Rain = 0
KMC6 041810Z 16012KT 18/03 A2996 RMK A01 T01770028  RH  037%=      5-min Rain = 0
KMC6 041811Z 16011KT 18/03 A2996 RMK A01 T01750027  RH  037%=      5-min Rain = 0
KMC6 041812Z 17010KT 18/03 A2996 RMK A01 T01750027  RH  037%=      5-min Rain = 0
KMC6 041813Z 16010KT 18/03 A2996 RMK A01 T01760030  RH  038%=      5-min Rain = 0
KMC6 041814Z 16011KT 18/03 A2996 RMK A01 T01760028  RH  037%=      5-min Rain = 0
KMC6 041815Z 15010KT 18/03 A2996 RMK A01 T01750027  RH  037%=      5-min Rain = 0
KMC6 041816Z 15008KT 17/03 A2996 RMK A01 T01730028  RH  038%=      5-min Rain = 0
KMC6 041817Z 14011KT 17/03 A2996 RMK A01 T01740030  RH  038%=      5-min Rain = 0
KMC6 041818Z 14011KT 18/03 A2996 RMK A01 T01750029  RH  038%=      5-min Rain = 0
KMC6 041819Z 14011KT 18/03 A2996 RMK A01 T01750030  RH  038%=      5-min Rain = 0
KMC6 041820Z 14011KT 18/03 A2996 RMK A01 T01750030  RH  038%=      5-min Rain = 0
KMC6 041821Z 14010KT 18/03 A2996 RMK A01 T01760030  RH  038%=      5-min Rain = 0
KMC6 041822Z 14009KT 18/03 A2995 RMK A01 T01760030  RH  038%=      5-min Rain = 0
KMC6 041823Z 14010KT 18/03 A2995 RMK A01 T01770032  RH  038%=      5-min Rain = 0
KMC6 041824Z 15010KT 18/03 A2995 RMK A01 T01790032  RH  038%=      5-min Rain = 0
KMC6 041825Z 17010KT 18/03 A2995 RMK A01 T01820032  RH  037%=      5-min Rain = 0
KMC6 041826Z 16011KT 19/03 A2995 RMK A01 T01850032  RH  036%=      5-min Rain = 0
KMC6 041827Z 15010KT 19/04 A2995 RMK A01 T01890035  RH  036%=      5-min Rain = 0
KMC6 041828Z 15009KT 19/04 A2995 RMK A01 T01920036  RH  036%=      5-min Rain = 0
KMC6 041829Z 15011KT 19/04 A2995 RMK A01 T01930036  RH  035%=      5-min Rain = 0
KMC6 041830Z 15011KT 20/04 A2995 RMK A01 T01960037  RH  035%=      5-min Rain = 0
KMC6 041831Z 15008KT 20/04 A2995 RMK A01 T01970036  RH  034%=      5-min Rain = 0
KMC6 041832Z 16009KT 20/04 A2995 RMK A01 T01960035  RH  034%=      5-min Rain = 0
KMC6 041833Z 17012KT 20/04 A2995 RMK A01 T01950036  RH  035%=      5-min Rain = 0
KMC6 041834Z 16011KT 20/04 A2995 RMK A01 T01980037  RH  035%=      5-min Rain = 0
KMC6 041835Z 16014G19KT 20/04 A2995 RMK A01 T01990035  RH  034%=      5-min Rain = 0
KMC6 041836Z 15012KT 20/03 A2995 RMK A01 T01970033  RH  034%=      5-min Rain = 0
KMC6 041837Z 17012KT 20/04 A2995 RMK A01 T01970036  RH  034%=      5-min Rain = 0
KMC6 041838Z 17013KT 20/04 A2995 RMK A01 T01990036  RH  034%=      5-min Rain = 0
KMC6 041839Z 18013KT 20/04 A2995 RMK A01 T02000035  RH  034%=      5-min Rain = 0
KMC6 041840Z 16013KT 20/04 A2995 RMK A01 T02010036  RH  034%=      5-min Rain = 0
KMC6 041841Z 16014KT 20/03 A2995 RMK A01 T02020034  RH  033%=      5-min Rain = 0
KMC6 041842Z 18013KT 20/03 A2995 RMK A01 T02000032  RH  033%=      5-min Rain = 0
KMC6 041843Z 18011KT 20/03 A2995 RMK A01 T01980031  RH  033%=      5-min Rain = 0
KMC6 041844Z 18013G19KT 20/03 A2995 RMK A01 T01960033  RH  034%=      5-min Rain = 0
KMC6 041845Z 17016KT 20/03 A2995 RMK A01 T01980032  RH  033%=      5-min Rain = 0
KMC6 041846Z 18015KT 20/03 A2994 RMK A01 T01990032  RH  033%=      5-min Rain = 0
KMC6 041847Z 19015G20KT 20/04 A2994 RMK A01 T02010035  RH  033%=      5-min Rain = 0
KMC6 041848Z 18014KT 20/03 A2995 RMK A01 T02030034  RH  033%=      5-min Rain = 0
KMC6 041849Z 17012G19KT 20/03 A2995 RMK A01 T02000032  RH  033%=      5-min Rain = 0
KMC6 041850Z 17012G17KT 20/03 A2994 RMK A01 T01990032  RH  033%=      5-min Rain = 0
KMC6 041851Z 17012KT 20/03 A2994 RMK A01 T01990033  RH  033%=      5-min Rain = 0
KMC6 041852Z 17016KT 20/04 A2994 RMK A01 T02010035  RH  033%=      5-min Rain = 0
KMC6 041853Z 18016KT 20/03 A2994 RMK A01 T02020032  RH  033%=      5-min Rain = 0
KMC6 041854Z 18015KT 20/03 A2994 RMK A01 T02010033  RH  033%=      5-min Rain = 0
KMC6 041855Z 18014G19KT 20/03 A2994 RMK A01 T02000032  RH  033%=      5-min Rain = 0
KMC6 041856Z 18014G21KT 20/03 A2994 RMK A01 T01990034  RH  033%=      5-min Rain = 0
KMC6 041857Z 17016KT 20/03 A2994 RMK A01 T02000034  RH  033%=      5-min Rain = 0
KMC6 041858Z 17016KT 20/04 A2994 RMK A01 T01990035  RH  034%=      5-min Rain = 0
KMC6 041859Z 16014KT 20/04 A2994 RMK A01 T01990036  RH  034%=      5-min Rain = 0
KMC6 041900Z 17015KT 20/04 A2994 RMK A01 T02020037  RH  034%=      5-min Rain = 0
KMC6 041901Z 17014KT 20/04 A2994 RMK A01 T02040036  RH  033%=      5-min Rain = 0
KMC6 041902Z 18013KT 20/04 A2994 RMK A01 T02040036  RH  033%=      5-min Rain = 0
KMC6 041903Z 17012KT 21/04 A2994 RMK A01 T02050038  RH  033%=      5-min Rain = 0
KMC6 041904Z 19018KT 21/04 A2994 RMK A01 T02080038  RH  033%=      5-min Rain = 0
KMC6 041905Z 19014G19KT 21/03 A2993 RMK A01 T02080033  RH  032%=      5-min Rain = 0
KMC6 041906Z 18014KT 21/03 A2993 RMK A01 T02050034  RH  032%=      5-min Rain = 0
KMC6 041907Z 18015KT 21/04 A2993 RMK A01 T02050035  RH  032%=      5-min Rain = 0
KMC6 041908Z 18016KT 21/04 A2993 RMK A01 T02050035  RH  033%=      5-min Rain = 0
KMC6 041909Z 18017KT 21/04 A2993 RMK A01 T02060035  RH  032%=      5-min Rain = 0
KMC6 041910Z 20016KT 21/04 A2993 RMK A01 T02080036  RH  032%=      5-min Rain = 0
KMC6 041911Z 20015KT 21/04 A2993 RMK A01 T02120037  RH  032%=      5-min Rain = 0
KMC6 041912Z 18015KT 21/04 A2993 RMK A01 T02140038  RH  031%=      5-min Rain = 0
KMC6 041913Z 18016KT 21/04 A2993 RMK A01 T02130037  RH  031%=      5-min Rain = 0
KMC6 041914Z 20017G22KT 21/04 A2993 RMK A01 T02140037  RH  031%=      5-min Rain = 0
KMC6 041915Z 20016KT 21/04 A2993 RMK A01 T02140036  RH  031%=      5-min Rain = 0
KMC6 041916Z 19014KT 22/04 A2993 RMK A01 T02150035  RH  031%=      5-min Rain = 0
KMC6 041917Z 19015KT 21/04 A2993 RMK A01 T02140036  RH  031%=      5-min Rain = 0
KMC6 041918Z 18014KT 21/04 A2993 RMK A01 T02140036  RH  031%=      5-min Rain = 0
KMC6 041919Z 18016KT 21/04 A2992 RMK A01 T02140037  RH  031%=      5-min Rain = 0
KMC6 041920Z 17016KT 22/04 A2992 RMK A01 T02160036  RH  031%=      5-min Rain = 0
KMC6 041921Z 19019G24KT 22/04 A2992 RMK A01 T02160036  RH  031%=      5-min Rain = 0
KMC6 041922Z 19018G23KT 22/03 A2992 RMK A01 T02160034  RH  030%=      5-min Rain = 0
KMC6 041923Z 20012G18KT 22/03 A2992 RMK A01 T02150033  RH  030%=      5-min Rain = 0
KMC6 041924Z 19017G22KT 22/04 A2992 RMK A01 T02170037  RH  031%=      5-min Rain = 0
KMC6 041925Z 18017G22KT 22/04 A2992 RMK A01 T02210036  RH  030%=      5-min Rain = 0
KMC6 041926Z 19016G21KT 22/04 A2992 RMK A01 T02200035  RH  030%=      5-min Rain = 0
KMC6 041927Z 18016KT 22/03 A2991 RMK A01 T02190033  RH  029%=      5-min Rain = 0
KMC6 041928Z 19012KT 22/03 A2991 RMK A01 T02180032  RH  029%=      5-min Rain = 0
KMC6 041929Z 19011KT 22/04 A2991 RMK A01 T02180035  RH  030%=      5-min Rain = 0
KMC6 041930Z 19011KT 22/04 A2991 RMK A01 T02220038  RH  030%=      5-min Rain = 0
KMC6 041931Z 19014KT 23/04 A2991 RMK A01 T02260039  RH  029%=      5-min Rain = 0
KMC6 041932Z 18012KT 23/04 A2991 RMK A01 T02280037  RH  029%=      5-min Rain = 0
KMC6 041933Z 19014KT 23/04 A2991 RMK A01 T02290037  RH  029%=      5-min Rain = 0
KMC6 041934Z 19013KT 22/03 A2991 RMK A01 T02240034  RH  029%=      5-min Rain = 0
KMC6 041935Z 19012KT 22/04 A2991 RMK A01 T02210035  RH  030%=      5-min Rain = 0
KMC6 041936Z 20016KT 22/04 A2991 RMK A01 T02200035  RH  030%=      5-min Rain = 0
KMC6 041937Z 20012KT 22/03 A2991 RMK A01 T02200032  RH  029%=      5-min Rain = 0
KMC6 041938Z 16015KT 22/04 A299 RMK A01 T02220036  RH  029%=      5-min Rain = 0
KMC6 041939Z 17013KT 23/03 A299 RMK A01 T02250034  RH  029%=      5-min Rain = 0
KMC6 041940Z 19012KT 23/03 A299 RMK A01 T02260034  RH  028%=      5-min Rain = 0
KMC6 041941Z 18013KT 23/04 A299 RMK A01 T02260036  RH  029%=      5-min Rain = 0
KMC6 041942Z 18013KT 23/04 A299 RMK A01 T02270037  RH  029%=      5-min Rain = 0
KMC6 041943Z 19013G18KT 23/04 A299 RMK A01 T02260036  RH  029%=      5-min Rain = 0
KMC6 041944Z 19016KT 23/03 A299 RMK A01 T02250033  RH  028%=      5-min Rain = 0
KMC6 041945Z 19015KT 23/03 A299 RMK A01 T02250032  RH  028%=      5-min Rain = 0
KMC6 041946Z 20016KT 23/03 A299 RMK A01 T02270032  RH  028%=      5-min Rain = 0
KMC6 041947Z 21013KT 23/03 A299 RMK A01 T02270031  RH  028%=      5-min Rain = 0
KMC6 041948Z 19013KT 23/03 A299 RMK A01 T02270032  RH  028%=      5-min Rain = 0
KMC6 041949Z 18012KT 23/03 A299 RMK A01 T02290034  RH  028%=      5-min Rain = 0
KMC6 041950Z 18013KT 23/03 A299 RMK A01 T02300033  RH  028%=      5-min Rain = 0
KMC6 041951Z 19020KT 23/03 A2989 RMK A01 T02290034  RH  028%=      5-min Rain = 0
KMC6 041952Z 19016G21KT 23/03 A299 RMK A01 T02300033  RH  028%=      5-min Rain = 0
KMC6 041953Z 20015G21KT 23/04 A299 RMK A01 T02340035  RH  027%=      5-min Rain = 0
KMC6 041954Z 19016G21KT 23/03 A299 RMK A01 T02330032  RH  027%=      5-min Rain = 0
KMC6 041955Z 20013KT 23/03 A2989 RMK A01 T02260031  RH  028%=      5-min Rain = 0
KMC6 041956Z 19012G17KT 23/03 A2989 RMK A01 T02260033  RH  028%=      5-min Rain = 0
KMC6 041957Z 19020KT 23/03 A2989 RMK A01 T02290034  RH  028%=      5-min Rain = 0
KMC6 041958Z 20016KT 23/03 A2989 RMK A01 T02280032  RH  028%=      5-min Rain = 0
KMC6 041959Z 20014G19KT 23/03 A2989 RMK A01 T02260033  RH  028%=      5-min Rain = 0
KMC6 042000Z 18017KT 23/04 A2989 RMK A01 T02280035  RH  028%=      5-min Rain = 0
KMC6 042001Z 19018KT 23/04 A2989 RMK A01 T02310036  RH  028%=      5-min Rain = 0
KMC6 042002Z 19016KT 23/04 A2989 RMK A01 T02320035  RH  028%=      5-min Rain = 0
KMC6 042003Z 19011KT 23/04 A2989 RMK A01 T02330035  RH  027%=      5-min Rain = 0
KMC6 042004Z 18013KT 24/04 A2989 RMK A01 T02360037  RH  027%=      5-min Rain = 0
KMC6 042005Z 18014KT 23/04 A2989 RMK A01 T02340035  RH  027%=      5-min Rain = 0
KMC6 042006Z 18015KT 23/04 A2989 RMK A01 T02320037  RH  028%=      5-min Rain = 0
KMC6 042007Z 17014KT 23/04 A2989 RMK A01 T02330037  RH  028%=      5-min Rain = 0
KMC6 042008Z 18015KT 24/04 A2989 RMK A01 T02350038  RH  028%=      5-min Rain = 0
KMC6 042009Z 19014G19KT 24/04 A2988 RMK A01 T02390038  RH  027%=      5-min Rain = 0
KMC6 042010Z 20013KT 24/03 A2988 RMK A01 T02400034  RH  026%=      5-min Rain = 0
KMC6 042011Z 19013KT 24/03 A2988 RMK A01 T02380032  RH  026%=      5-min Rain = 0
KMC6 042012Z 18018KT 24/03 A2988 RMK A01 T02360034  RH  027%=      5-min Rain = 0
KMC6 042013Z 18014KT 23/03 A2988 RMK A01 T02340033  RH  027%=      5-min Rain = 0
KMC6 042014Z 18013KT 23/03 A2988 RMK A01 T02320034  RH  027%=      5-min Rain = 0
KMC6 042015Z 18015KT 23/04 A2988 RMK A01 T02330035  RH  027%=      5-min Rain = 0
KMC6 042016Z 17015KT 23/04 A2988 RMK A01 T02330036  RH  028%=      5-min Rain = 0
KMC6 042017Z 17015KT 24/04 A2987 RMK A01 T02370037  RH  027%=      5-min Rain = 0
KMC6 042018Z 18013KT 24/04 A2987 RMK A01 T02400037  RH  027%=      5-min Rain = 0
KMC6 042019Z 17014KT 24/04 A2987 RMK A01 T02390037  RH  027%=      5-min Rain = 0
KMC6 042020Z 17013KT 24/04 A2987 RMK A01 T02390037  RH  027%=      5-min Rain = 0
KMC6 042021Z 19015KT 24/04 A2987 RMK A01 T02390036  RH  027%=      5-min Rain = 0
KMC6 042022Z 20016KT 24/03 A2987 RMK A01 T02410033  RH  026%=      5-min Rain = 0
KMC6 042023Z 18014G19KT 24/03 A2987 RMK A01 T02400033  RH  026%=      5-min Rain = 0
KMC6 042024Z 19014G21KT 24/04 A2987 RMK A01 T02440036  RH  026%=      5-min Rain = 0
KMC6 042025Z 19015G20KT 25/03 A2987 RMK A01 T02460034  RH  025%=      5-min Rain = 0
KMC6 042026Z 18014G20KT 24/03 A2987 RMK A01 T02390032  RH  026%=      5-min Rain = 0
KMC6 042027Z 17014KT 24/04 A2987 RMK A01 T02420036  RH  026%=      5-min Rain = 0
KMC6 042028Z 18015KT 24/04 A2986 RMK A01 T02420035  RH  026%=      5-min Rain = 0
KMC6 042029Z 18015KT 24/04 A2986 RMK A01 T02410035  RH  026%=      5-min Rain = 0
KMC6 042030Z 18015G20KT 24/04 A2986 RMK A01 T02420035  RH  026%=      5-min Rain = 0
KMC6 042031Z 17018KT 24/04 A2986 RMK A01 T02430035  RH  026%=      5-min Rain = 0
KMC6 042032Z 18017KT 24/03 A2986 RMK A01 T02420033  RH  026%=      5-min Rain = 0
KMC6 042033Z 18015G20KT 24/03 A2986 RMK A01 T02410034  RH  026%=      5-min Rain = 0
KMC6 042034Z 17013KT 24/04 A2987 RMK A01 T02410035  RH  026%=      5-min Rain = 0
KMC6 042035Z 17015KT 24/03 A2986 RMK A01 T02420034  RH  026%=      5-min Rain = 0
KMC6 042036Z 17016KT 24/03 A2986 RMK A01 T02380032  RH  026%=      5-min Rain = 0
KMC6 042037Z 16019KT 24/03 A2986 RMK A01 T02360033  RH  027%=      5-min Rain = 0
KMC6 042038Z 17016G21KT 24/04 A2986 RMK A01 T02380035  RH  027%=      5-min Rain = 0
KMC6 042039Z 16013KT 24/04 A2986 RMK A01 T02430037  RH  026%=      5-min Rain = 0
KMC6 042040Z 18016KT 24/04 A2986 RMK A01 T02440036  RH  026%=      5-min Rain = 0
KMC6 042041Z 18017KT 24/04 A2986 RMK A01 T02440036  RH  026%=      5-min Rain = 0
KMC6 042042Z 18017G24KT 24/04 A2986 RMK A01 T02420035  RH  026%=      5-min Rain = 0
KMC6 042043Z 17016G22KT 24/04 A2986 RMK A01 T02420035  RH  026%=      5-min Rain = 0
KMC6 042044Z 16016KT 24/04 A2985 RMK A01 T02440037  RH  026%=      5-min Rain = 0
KMC6 042045Z 17017G22KT 25/04 A2985 RMK A01 T02450036  RH  026%=      5-min Rain = 0
KMC6 042046Z 17017KT 24/04 A2985 RMK A01 T02430035  RH  026%=      5-min Rain = 0
KMC6 042047Z 18017KT 24/04 A2985 RMK A01 T02430035  RH  026%=      5-min Rain = 0
KMC6 042048Z 18016KT 24/04 A2985 RMK A01 T02440037  RH  026%=      5-min Rain = 0
KMC6 042049Z 17015KT 25/04 A2985 RMK A01 T02460037  RH  026%=      5-min Rain = 0
KMC6 042050Z 16019G24KT 25/04 A2985 RMK A01 T02450037  RH  026%=      5-min Rain = 0
KMC6 042051Z 17017G22KT 25/04 A2985 RMK A01 T02450035  RH  026%=      5-min Rain = 0
KMC6 042052Z 18019G25KT 24/04 A2985 RMK A01 T02430035  RH  026%=      5-min Rain = 0
KMC6 042053Z 17019KT 24/04 A2985 RMK A01 T02440035  RH  026%=      5-min Rain = 0
KMC6 042054Z 16017KT 25/04 A2985 RMK A01 T02450036  RH  026%=      5-min Rain = 0
KMC6 042055Z 17019G24KT 25/04 A2984 RMK A01 T02490037  RH  025%=      5-min Rain = 0
KMC6 042056Z 19017G22KT 25/03 A2984 RMK A01 T02490032  RH  024%=      5-min Rain = 0
KMC6 042057Z 17016G21KT 25/03 A2984 RMK A01 T02450032  RH  025%=      5-min Rain = 0
KMC6 042058Z 16017G23KT 25/04 A2984 RMK A01 T02470035  RH  025%=      5-min Rain = 0
KMC6 042059Z 17016KT 25/04 A2984 RMK A01 T02490035  RH  025%=      5-min Rain = 0
KMC6 042100Z 16014KT 25/04 A2984 RMK A01 T02520037  RH  025%=      5-min Rain = 0
KMC6 042101Z 16018G23KT 25/03 A2984 RMK A01 T02520034  RH  024%=      5-min Rain = 0
KMC6 042102Z 16015G22KT 25/03 A2984 RMK A01 T02500032  RH  024%=      5-min Rain = 0
KMC6 042103Z 17014KT 25/04 A2984 RMK A01 T02500035  RH  025%=      5-min Rain = 0
KMC6 042104Z 16016G21KT 25/04 A2984 RMK A01 T02520037  RH  025%=      5-min Rain = 0
KMC6 042105Z 18017KT 25/03 A2984 RMK A01 T02530033  RH  024%=      5-min Rain = 0
KMC6 042106Z 17017KT 25/03 A2984 RMK A01 T02510032  RH  024%=      5-min Rain = 0
KMC6 042107Z 16017G22KT 25/03 A2983 RMK A01 T02500032  RH  024%=      5-min Rain = 0
KMC6 042108Z 18015KT 25/04 A2983 RMK A01 T02510035  RH  025%=      5-min Rain = 0
KMC6 042109Z 17013KT 25/03 A2983 RMK A01 T02520034  RH  024%=      5-min Rain = 0
KMC6 042110Z 18018KT 25/04 A2983 RMK A01 T02530036  RH  024%=      5-min Rain = 0
KMC6 042111Z 17015KT 26/04 A2983 RMK A01 T02550036  RH  024%=      5-min Rain = 0
KMC6 042112Z 17016G21KT 26/04 A2983 RMK A01 T02570035  RH  024%=      5-min Rain = 0
KMC6 042113Z 17017KT 26/03 A2983 RMK A01 T02570034  RH  024%=      5-min Rain = 0
KMC6 042114Z 17017G22KT 26/03 A2983 RMK A01 T02560034  RH  024%=      5-min Rain = 0
KMC6 042115Z 18016KT 25/03 A2983 RMK A01 T02540032  RH  024%=      5-min Rain = 0
KMC6 042116Z 17014G19KT 26/03 A2983 RMK A01 T02550033  RH  024%=      5-min Rain = 0
KMC6 042117Z 17017KT 26/03 A2983 RMK A01 T02570034  RH  024%=      5-min Rain = 0
KMC6 042118Z 17016KT 25/03 A2983 RMK A01 T02540032  RH  024%=      5-min Rain = 0
KMC6 042119Z 17017KT 25/03 A2983 RMK A01 T02520033  RH  024%=      5-min Rain = 0
KMC6 042120Z 19017KT 25/03 A2983 RMK A01 T02500032  RH  024%=      5-min Rain = 0
KMC6 042121Z 19015KT 25/03 A2983 RMK A01 T02490034  RH  025%=      5-min Rain = 0
KMC6 042122Z 19015KT 25/04 A2983 RMK A01 T02490035  RH  025%=      5-min Rain = 0
KMC6 042123Z 17014KT 25/04 A2983 RMK A01 T02480035  RH  025%=      5-min Rain = 0
KMC6 042124Z 18012KT 25/04 A2983 RMK A01 T02480035  RH  025%=      5-min Rain = 0
KMC6 042125Z 17017KT 25/04 A2983 RMK A01 T02500036  RH  025%=      5-min Rain = 0
KMC6 042126Z 17016KT 25/03 A2983 RMK A01 T02500034  RH  025%=      5-min Rain = 0
KMC6 042127Z 17017KT 25/03 A2983 RMK A01 T02490034  RH  025%=      5-min Rain = 0
KMC6 042128Z 17017KT 25/03 A2983 RMK A01 T02490032  RH  024%=      5-min Rain = 0
KMC6 042129Z 17015KT 25/03 A2983 RMK A01 T02490032  RH  024%=      5-min Rain = 0
KMC6 042130Z 18016KT 25/03 A2983 RMK A01 T02490031  RH  024%=      5-min Rain = 0
KMC6 042131Z 18016KT 25/03 A2983 RMK A01 T02490030  RH  024%=      5-min Rain = 0
KMC6 042132Z 19014KT 25/03 A2983 RMK A01 T02480029  RH  024%=      5-min Rain = 0
KMC6 042133Z 18013KT 25/03 A2983 RMK A01 T02460029  RH  024%=      5-min Rain = 0
KMC6 042134Z 17014KT 25/03 A2983 RMK A01 T02460030  RH  025%=      5-min Rain = 0
KMC6 042135Z 18015KT 25/03 A2983 RMK A01 T02470031  RH  025%=      5-min Rain = 0
KMC6 042136Z 17014KT 25/03 A2983 RMK A01 T02460031  RH  025%=      5-min Rain = 0
KMC6 042137Z 17014KT 25/03 A2983 RMK A01 T02450031  RH  025%=      5-min Rain = 0
KMC6 042138Z 17013KT 25/03 A2983 RMK A01 T02450031  RH  025%=      5-min Rain = 0
KMC6 042139Z 17016KT 25/03 A2983 RMK A01 T02460031  RH  025%=      5-min Rain = 0
KMC6 042140Z 17014G20KT 25/03 A2983 RMK A01 T02460031  RH  025%=      5-min Rain = 0
KMC6 042141Z 17013KT 25/03 A2983 RMK A01 T02480033  RH  025%=      5-min Rain = 0
KMC6 042142Z 17016G21KT 25/03 A2983 RMK A01 T02490033  RH  025%=      5-min Rain = 0
KMC6 042143Z 17016KT 25/03 A2983 RMK A01 T02490030  RH  024%=      5-min Rain = 0
KMC6 042144Z 18015KT 25/03 A2982 RMK A01 T02480031  RH  024%=      5-min Rain = 0
KMC6 042145Z 18017KT 25/03 A2982 RMK A01 T02480032  RH  025%=      5-min Rain = 0
KMC6 042146Z 17019KT 25/03 A2982 RMK A01 T02480032  RH  025%=      5-min Rain = 0
KMC6 042147Z 17017G23KT 25/03 A2982 RMK A01 T02470031  RH  025%=      5-min Rain = 0
KMC6 042148Z 18018G24KT 25/03 A2982 RMK A01 T02460027  RH  024%=      5-min Rain = 0
KMC6 042149Z 17016KT 25/03 A2982 RMK A01 T02470026  RH  024%=      5-min Rain = 0
KMC6 042150Z 17017G22KT 25/03 A2982 RMK A01 T02470031  RH  025%=      5-min Rain = 0
KMC6 042151Z 18015G20KT 25/03 A2982 RMK A01 T02470032  RH  025%=      5-min Rain = 0
KMC6 042152Z 18013KT 25/03 A2982 RMK A01 T02470033  RH  025%=      5-min Rain = 0
KMC6 042153Z 18016KT 25/03 A2982 RMK A01 T02480031  RH  024%=      5-min Rain = 0
KMC6 042154Z 18013KT 25/03 A2982 RMK A01 T02480030  RH  024%=      5-min Rain = 0
KMC6 042155Z 18015KT 25/03 A2982 RMK A01 T02480032  RH  024%=      5-min Rain = 0
KMC6 042156Z 17018KT 25/03 A2982 RMK A01 T02490030  RH  024%=      5-min Rain = 0
KMC6 042157Z 17016KT 25/03 A2982 RMK A01 T02490028  RH  024%=      5-min Rain = 0
KMC6 042158Z 17015KT 25/03 A2982 RMK A01 T02490027  RH  024%=      5-min Rain = 0
KMC6 042159Z 18012KT 25/03 A2982 RMK A01 T02490027  RH  024%=      5-min Rain = 0
KMC6 042200Z 18014G19KT 25/03 A2982 RMK A01 T02490027  RH  024%=      5-min Rain = 0
KMC6 042201Z 19016KT 25/02 A2982 RMK A01 T02510022  RH  023%=      5-min Rain = 0
KMC6 042202Z 21015G20KT 25/02 A2982 RMK A01 T02520023  RH  023%=      5-min Rain = 0
KMC6 042203Z 20013KT 25/02 A2982 RMK A01 T02520023  RH  022%=      5-min Rain = 0
KMC6 042204Z 21020G26KT 25/03 A2982 RMK A01 T02540025  RH  023%=      5-min Rain = 0
KMC6 042205Z 22019G24KT 26/03 A2982 RMK A01 T02570027  RH  022%=      5-min Rain = 0
KMC6 042206Z 21018G25KT 26/03 A2982 RMK A01 T02590029  RH  023%=      5-min Rain = 0
KMC6 042207Z 21016KT 26/03 A2983 RMK A01 T02610027  RH  022%=      5-min Rain = 0
KMC6 042208Z 22016G22KT 26/03 A2983 RMK A01 T02630028  RH  022%=      5-min Rain = 0
KMC6 042209Z 21014KT 27/02 A2983 RMK A01 T02650015  RH  020%=      5-min Rain = 0
KMC6 042210Z 23017G30KT 27/02 A2983 RMK A01 T02650024  RH  021%=      5-min Rain = 0
KMC6 042211Z 21019G30KT 27/01 A2982 RMK A01 T02660010  RH  019%=      5-min Rain = 0
KMC6 042212Z 21021G26KT 27/02 A2982 RMK A01 T02670019  RH  020%=      5-min Rain = 0
KMC6 042213Z 21016KT 26/03 A2982 RMK A01 T02640027  RH  022%=      5-min Rain = 0
KMC6 042214Z 23021G28KT 26/01 A2982 RMK A01 T02640012  RH  020%=      5-min Rain = 0
KMC6 042215Z 24023G28KT 27/M02 A2982 RMK A01 T02651022  RH  015%=      5-min Rain = 0
KMC6 042216Z 23026G32KT 27/M02 A2982 RMK A01 T02661021  RH  015%=      5-min Rain = 0
KMC6 042217Z 24025G33KT 27/M03 A2982 RMK A01 T02661025  RH  015%=      5-min Rain = 0
KMC6 042218Z 24028G34KT 27/M02 A2982 RMK A01 T02661024  RH  015%=      5-min Rain = 0
KMC6 042219Z 24029KT 27/M03 A2982 RMK A01 T02661031  RH  014%=      5-min Rain = 0
KMC6 042220Z 25027G36KT 26/M03 A2982 RMK A01 T02641032  RH  014%=      5-min Rain = 0
KMC6 042221Z 25026G31KT 26/M03 A2982 RMK A01 T02631031  RH  014%=      5-min Rain = 0
KMC6 042222Z 25025G30KT 26/M03 A2981 RMK A01 T02641032  RH  014%=      5-min Rain = 0
KMC6 042223Z 25027G33KT 26/M03 A2982 RMK A01 T02641029  RH  014%=      5-min Rain = 0
KMC6 042224Z 25027G35KT 27/M03 A2982 RMK A01 T02651030  RH  014%=      5-min Rain = 0
KMC6 042225Z 25029G34KT 26/M03 A2981 RMK A01 T02641033  RH  014%=      5-min Rain = 0
KMC6 042226Z 25025G32KT 26/M03 A2982 RMK A01 T02631032  RH  014%=      5-min Rain = 0
KMC6 042227Z 25029KT 26/M04 A2982 RMK A01 T02641035  RH  014%=      5-min Rain = 0
KMC6 042228Z 25028G33KT 26/M03 A2982 RMK A01 T02631033  RH  014%=      5-min Rain = 0
KMC6 042229Z 25031KT 26/M03 A2981 RMK A01 T02621033  RH  014%=      5-min Rain = 0
KMC6 042230Z 25030G36KT 26/M03 A2982 RMK A01 T02611033  RH  014%=      5-min Rain = 0
KMC6 042231Z 25030KT 26/M04 A2981 RMK A01 T02601035  RH  014%=      5-min Rain = 0
KMC6 042232Z 26030G35KT 26/M04 A2981 RMK A01 T02601035  RH  014%=      5-min Rain = 0
KMC6 042233Z 26030G35KT 26/M03 A2981 RMK A01 T02601034  RH  014%=      5-min Rain = 0
KMC6 042234Z 26028G33KT 26/M03 A2982 RMK A01 T02591034  RH  014%=      5-min Rain = 0
KMC6 042235Z 25029G34KT 26/M04 A2981 RMK A01 T02591035  RH  014%=      5-min Rain = 0
KMC6 042236Z 25028KT 26/M03 A2981 RMK A01 T02581033  RH  014%=      5-min Rain = 0
KMC6 042237Z 25025G31KT 26/M03 A2982 RMK A01 T02591032  RH  014%=      5-min Rain = 0
KMC6 042238Z 24028G36KT 26/M03 A2982 RMK A01 T02591032  RH  014%=      5-min Rain = 0
KMC6 042239Z 25025G31KT 26/M03 A2982 RMK A01 T02581032  RH  015%=      5-min Rain = 0
KMC6 042240Z 25025G33KT 26/M03 A2981 RMK A01 T02581032  RH  015%=      5-min Rain = 0
KMC6 042241Z 25026KT 26/M03 A2982 RMK A01 T02581031  RH  015%=      5-min Rain = 0
KMC6 042242Z 25023G30KT 26/M03 A2982 RMK A01 T02591033  RH  014%=      5-min Rain = 0
KMC6 042243Z 25021G26KT 26/M03 A2982 RMK A01 T02591030  RH  015%=      5-min Rain = 0
KMC6 042244Z 25023G30KT 26/M03 A2982 RMK A01 T02601030  RH  015%=      5-min Rain = 0
KMC6 042245Z 25025G30KT 26/M03 A2982 RMK A01 T02591031  RH  015%=      5-min Rain = 0
KMC6 042246Z 24026KT 26/M03 A2982 RMK A01 T02571033  RH  014%=      5-min Rain = 0
KMC6 042247Z 25025G32KT 26/M03 A2982 RMK A01 T02561033  RH  015%=      5-min Rain = 0
KMC6 042248Z 25022G28KT 26/M03 A2982 RMK A01 T02551032  RH  015%=      5-min Rain = 0
KMC6 042249Z 25023G28KT 25/M03 A2982 RMK A01 T02541034  RH  015%=      5-min Rain = 0
KMC6 042250Z 25025G31KT 25/M04 A2982 RMK A01 T02531036  RH  015%=      5-min Rain = 0
KMC6 042251Z 25023G30KT 25/M04 A2982 RMK A01 T02531036  RH  015%=      5-min Rain = 0
KMC6 042252Z 25027G32KT 25/M04 A2982 RMK A01 T02531037  RH  014%=      5-min Rain = 0
KMC6 042253Z 25025G30KT 25/M04 A2982 RMK A01 T02531038  RH  014%=      5-min Rain = 0
KMC6 042254Z 25025G30KT 25/M04 A2982 RMK A01 T02521040  RH  014%=      5-min Rain = 0
KMC6 042255Z 26023G29KT 25/M04 A2982 RMK A01 T02511040  RH  014%=      5-min Rain = 0
KMC6 042256Z 26025KT 25/M04 A2982 RMK A01 T02501041  RH  014%=      5-min Rain = 0
KMC6 042257Z 26024G29KT 25/M04 A2982 RMK A01 T02491042  RH  014%=      5-min Rain = 0
KMC6 042258Z 26023KT 25/M04 A2982 RMK A01 T02501044  RH  014%=      5-min Rain = 0
KMC6 042259Z 26022G27KT 25/M05 A2982 RMK A01 T02501050  RH  013%=      5-min Rain = 0
KMC6 042300Z 27022G28KT 25/M06 A2983 RMK A01 T02501055  RH  013%=      5-min Rain = 0
KMC6 042301Z 26024G29KT 25/M06 A2982 RMK A01 T02501059  RH  012%=      5-min Rain = 0
KMC6 042302Z 26022G27KT 25/M06 A2983 RMK A01 T02501060  RH  012%=      5-min Rain = 0
KMC6 042303Z 27021G26KT 25/M06 A2983 RMK A01 T02501062  RH  012%=      5-min Rain = 0
KMC6 042304Z 26022G27KT 25/M06 A2983 RMK A01 T02491062  RH  012%=      5-min Rain = 0
KMC6 042305Z 26019G25KT 25/M06 A2983 RMK A01 T02491063  RH  012%=      5-min Rain = 0
KMC6 042306Z 26019G24KT 25/M06 A2983 RMK A01 T02491057  RH  013%=      5-min Rain = 0
KMC6 042307Z 26020G26KT 25/M06 A2983 RMK A01 T02491057  RH  013%=      5-min Rain = 0
KMC6 042308Z 25020G25KT 25/M06 A2983 RMK A01 T02491058  RH  013%=      5-min Rain = 0
KMC6 042309Z 26027KT 25/M07 A2983 RMK A01 T02501065  RH  012%=      5-min Rain = 0
KMC6 042310Z 26024G30KT 25/M07 A2983 RMK A01 T02491073  RH  011%=      5-min Rain = 0
KMC6 042311Z 27023G31KT 25/M07 A2983 RMK A01 T02481074  RH  011%=      5-min Rain = 0
KMC6 042312Z 27025G30KT 25/M08 A2982 RMK A01 T02471077  RH  011%=      5-min Rain = 0
KMC6 042313Z 26027G32KT 25/M08 A2982 RMK A01 T02471077  RH  011%=      5-min Rain = 0
KMC6 042314Z 26025G32KT 25/M08 A2982 RMK A01 T02461076  RH  011%=      5-min Rain = 0
KMC6 042315Z 25022G28KT 25/M07 A2983 RMK A01 T02461074  RH  011%=      5-min Rain = 0
KMC6 042316Z 25026G31KT 25/M08 A2982 RMK A01 T02461075  RH  011%=      5-min Rain = 0
KMC6 042317Z 25026G31KT 25/M08 A2982 RMK A01 T02451079  RH  011%=      5-min Rain = 0
KMC6 042318Z 26023G28KT 24/M08 A2983 RMK A01 T02441078  RH  011%=      5-min Rain = 0
KMC6 042319Z 26027G33KT 24/M08 A2982 RMK A01 T02441082  RH  011%=      5-min Rain = 0
KMC6 042320Z 26029G34KT 24/M09 A2982 RMK A01 T02431085  RH  011%=      5-min Rain = 0
KMC6 042321Z 25028G33KT 24/M09 A2983 RMK A01 T02431086  RH  011%=      5-min Rain = 0
KMC6 042322Z 26023G30KT 24/M09 A2983 RMK A01 T02431085  RH  011%=      5-min Rain = 0
KMC6 042323Z 26027G32KT 24/M09 A2983 RMK A01 T02421086  RH  011%=      5-min Rain = 0
KMC6 042324Z 25027KT 24/M09 A2983 RMK A01 T02421089  RH  010%=      5-min Rain = 0
KMC6 042325Z 25026G33KT 24/M09 A2983 RMK A01 T02421091  RH  010%=      5-min Rain = 0
KMC6 042326Z 26025G30KT 24/M09 A2983 RMK A01 T02411092  RH  010%=      5-min Rain = 0
KMC6 042327Z 26027G36KT 24/M09 A2983 RMK A01 T02411093  RH  010%=      5-min Rain = 0
KMC6 042328Z 26027G35KT 24/M10 A2983 RMK A01 T02401096  RH  010%=      5-min Rain = 0
KMC6 042329Z 25027G33KT 24/M10 A2983 RMK A01 T02401097  RH  010%=      5-min Rain = 0
KMC6 042330Z 26025G33KT 24/M10 A2983 RMK A01 T02401098  RH  010%=      5-min Rain = 0
KMC6 042331Z 26025G30KT 24/M10 A2983 RMK A01 T02401097  RH  010%=      5-min Rain = 0
KMC6 042332Z 25025G30KT 24/M10 A2984 RMK A01 T02401096  RH  010%=      5-min Rain = 0
KMC6 042333Z 25025G30KT 24/M10 A2984 RMK A01 T02401095  RH  010%=      5-min Rain = 0
KMC6 042334Z 25025G32KT 24/M10 A2984 RMK A01 T02401095  RH  010%=      5-min Rain = 0
KMC6 042335Z 24025G31KT 24/M10 A2984 RMK A01 T02391095  RH  010%=      5-min Rain = 0
KMC6 042336Z 25025G32KT 24/M09 A2984 RMK A01 T02391094  RH  010%=      5-min Rain = 0
KMC6 042337Z 25026KT 24/M09 A2984 RMK A01 T02381093  RH  010%=      5-min Rain = 0
KMC6 042338Z 25024G29KT 24/M09 A2984 RMK A01 T02381089  RH  011%=      5-min Rain = 0
KMC6 042339Z 25022G27KT 24/M09 A2984 RMK A01 T02371090  RH  011%=      5-min Rain = 0
KMC6 042340Z 25019G24KT 24/M09 A2984 RMK A01 T02371090  RH  011%=      5-min Rain = 0
KMC6 042341Z 25020KT 24/M09 A2984 RMK A01 T02361090  RH  011%=      5-min Rain = 0
KMC6 042342Z 25024G29KT 24/M09 A2984 RMK A01 T02351094  RH  010%=      5-min Rain = 0
KMC6 042343Z 25021G26KT 24/M10 A2984 RMK A01 T02351095  RH  010%=      5-min Rain = 0
KMC6 042344Z 25019KT 24/M09 A2984 RMK A01 T02351092  RH  011%=      5-min Rain = 0
KMC6 042345Z 25019KT 23/M09 A2984 RMK A01 T02341093  RH  010%=      5-min Rain = 0
KMC6 042346Z 25020G25KT 23/M09 A2984 RMK A01 T02341094  RH  010%=      5-min Rain = 0
KMC6 042347Z 25020G25KT 23/M10 A2984 RMK A01 T02341095  RH  010%=      5-min Rain = 0
KMC6 042348Z 25018KT 23/M09 A2984 RMK A01 T02341092  RH  011%=      5-min Rain = 0
KMC6 042349Z 25019KT 23/M09 A2984 RMK A01 T02331091  RH  011%=      5-min Rain = 0
KMC6 042350Z 24019G25KT 23/M09 A2984 RMK A01 T02321089  RH  011%=      5-min Rain = 0
KMC6 042351Z 24021G26KT 23/M09 A2984 RMK A01 T02311088  RH  011%=      5-min Rain = 0
KMC6 042352Z 24021G27KT 23/M09 A2984 RMK A01 T02311089  RH  011%=      5-min Rain = 0
KMC6 042353Z 24020KT 23/M09 A2984 RMK A01 T02311090  RH  011%=      5-min Rain = 0
KMC6 042354Z 24018G24KT 23/M09 A2985 RMK A01 T02301088  RH  011%=      5-min Rain = 0
KMC6 042355Z 25021KT 23/M09 A2984 RMK A01 T02291088  RH  011%=      5-min Rain = 0
KMC6 042356Z 25017G22KT 23/M09 A2985 RMK A01 T02291089  RH  011%=      5-min Rain = 0
KMC6 042357Z 24018KT 23/M09 A2985 RMK A01 T02281087  RH  011%=      5-min Rain = 0
KMC6 042358Z 24017G22KT 23/M09 A2985 RMK A01 T02271087  RH  012%=      5-min Rain = 0
KMC6 042359Z 24018KT 23/M09 A2985 RMK A01 T02261087  RH  012%=      5-min Rain = 0
KMC6 050000Z 25018KT 23/M09 A2985 RMK A01 T02261087  RH  012%=      5-min Rain = 0
KMC6 050001Z 25018G23KT 23/M09 A2985 RMK A01 T02261088  RH  012%=      5-min Rain = 0
KMC6 050002Z 25017G23KT 23/M09 A2985 RMK A01 T02271086  RH  012%=      5-min Rain = 0
KMC6 050003Z 26017KT 23/M09 A2985 RMK A01 T02261087  RH  012%=      5-min Rain = 0
KMC6 050004Z 26017G23KT 23/M09 A2985 RMK A01 T02261087  RH  012%=      5-min Rain = 0
KMC6 050005Z 26019G24KT 23/M09 A2985 RMK A01 T02261088  RH  012%=      5-min Rain = 0
KMC6 050006Z 26018G23KT 23/M09 A2985 RMK A01 T02261088  RH  011%=      5-min Rain = 0
KMC6 050007Z 26019KT 23/M09 A2985 RMK A01 T02261089  RH  011%=      5-min Rain = 0
KMC6 050008Z 26018G24KT 23/M09 A2985 RMK A01 T02261093  RH  011%=      5-min Rain = 0
KMC6 050009Z 26020KT 23/M09 A2985 RMK A01 T02251094  RH  011%=      5-min Rain = 0
KMC6 050010Z 27019KT 23/M09 A2985 RMK A01 T02261092  RH  011%=      5-min Rain = 0
KMC6 050011Z 27016KT 23/M09 A2985 RMK A01 T02261091  RH  011%=      5-min Rain = 0
KMC6 050012Z 27016KT 22/M09 A2985 RMK A01 T02241090  RH  011%=      5-min Rain = 0
KMC6 050013Z 27015KT 22/M09 A2985 RMK A01 T02231091  RH  011%=      5-min Rain = 0
KMC6 050014Z 27013KT 22/M09 A2985 RMK A01 T02221090  RH  012%=      5-min Rain = 0
KMC6 050015Z 27016KT 22/M09 A2985 RMK A01 T02211092  RH  011%=      5-min Rain = 0
KMC6 050016Z 27014KT 22/M09 A2985 RMK A01 T02221093  RH  011%=      5-min Rain = 0
KMC6 050017Z 27013KT 22/M09 A2985 RMK A01 T02231092  RH  011%=      5-min Rain = 0
KMC6 050018Z 27014KT 22/M09 A2985 RMK A01 T02221092  RH  011%=      5-min Rain = 0
KMC6 050019Z 27013KT 22/M09 A2985 RMK A01 T02211094  RH  011%=      5-min Rain = 0
KMC6 050020Z 27013KT 22/M10 A2985 RMK A01 T02201095  RH  011%=      5-min Rain = 0
KMC6 050021Z 27012KT 22/M10 A2985 RMK A01 T02181097  RH  011%=      5-min Rain = 0
KMC6 050022Z 28012KT 22/M10 A2986 RMK A01 T02161098  RH  011%=      5-min Rain = 0
KMC6 050023Z 27013KT 22/M10 A2986 RMK A01 T02151099  RH  011%=      5-min Rain = 0
KMC6 050024Z 28012KT 22/M10 A2986 RMK A01 T02151100  RH  011%=      5-min Rain = 0
KMC6 050025Z 28014G19KT 22/M10 A2986 RMK A01 T02151100  RH  011%=      5-min Rain = 0
KMC6 050026Z 29014KT 22/M10 A2986 RMK A01 T02151099  RH  011%=      5-min Rain = 0
KMC6 050027Z 28011KT 22/M10 A2986 RMK A01 T02161097  RH  011%=      5-min Rain = 0
KMC6 050028Z 28014G20KT 22/M10 A2986 RMK A01 T02151096  RH  012%=      5-min Rain = 0
KMC6 050029Z 29016KT 21/M09 A2986 RMK A01 T02141092  RH  012%=      5-min Rain = 0
KMC6 050030Z 29013KT 21/M09 A2987 RMK A01 T02141090  RH  012%=      5-min Rain = 0
KMC6 050031Z 29014KT 21/M09 A2987 RMK A01 T02131090  RH  012%=      5-min Rain = 0
KMC6 050032Z 29014KT 21/M09 A2987 RMK A01 T02111088  RH  013%=      5-min Rain = 0
KMC6 050033Z 30013KT 21/M09 A2987 RMK A01 T02101087  RH  013%=      5-min Rain = 0
KMC6 050034Z 29013KT 21/M09 A2987 RMK A01 T02071086  RH  013%=      5-min Rain = 0
KMC6 050035Z 30012KT 21/M09 A2987 RMK A01 T02051086  RH  013%=      5-min Rain = 0
KMC6 050036Z 29013G18KT 20/M09 A2987 RMK A01 T02041086  RH  013%=      5-min Rain = 0
KMC6 050037Z 29015KT 20/M09 A2987 RMK A01 T02041087  RH  013%=      5-min Rain = 0
KMC6 050038Z 29014KT 21/M09 A2987 RMK A01 T02051086  RH  013%=      5-min Rain = 0
KMC6 050039Z 29013KT 20/M09 A2987 RMK A01 T02031086  RH  013%=      5-min Rain = 0
KMC6 050040Z 29014KT 20/M09 A2987 RMK A01 T02021086  RH  014%=      5-min Rain = 0
KMC6 050041Z 29014KT 20/M09 A2987 RMK A01 T02011088  RH  013%=      5-min Rain = 0
KMC6 050042Z 29014KT 20/M09 A2987 RMK A01 T02011088  RH  013%=      5-min Rain = 0
KMC6 050043Z 30013KT 20/M09 A2987 RMK A01 T02001089  RH  013%=      5-min Rain = 0
KMC6 050044Z 29014KT 20/M09 A2987 RMK A01 T01991090  RH  013%=      5-min Rain = 0
KMC6 050045Z 29012KT 20/M09 A2987 RMK A01 T01991091  RH  013%=      5-min Rain = 0
KMC6 050046Z 29012KT 20/M09 A2987 RMK A01 T01971092  RH  013%=      5-min Rain = 0
KMC6 050047Z 29013KT 20/M09 A2987 RMK A01 T01961094  RH  013%=      5-min Rain = 0
KMC6 050048Z 29016KT 20/M10 A2987 RMK A01 T01961096  RH  013%=      5-min Rain = 0
KMC6 050049Z 29016KT 20/M10 A2987 RMK A01 T01961097  RH  013%=      5-min Rain = 0
KMC6 050050Z 29015KT 20/M10 A2987 RMK A01 T01961098  RH  013%=      5-min Rain = 0
KMC6 050051Z 29015KT 20/M10 A2987 RMK A01 T01951098  RH  013%=      5-min Rain = 0
KMC6 050052Z 29014KT 19/M10 A2987 RMK A01 T01941098  RH  013%=      5-min Rain = 0
KMC6 050053Z 29013KT 19/M10 A2988 RMK A01 T01931098  RH  013%=      5-min Rain = 0
KMC6 050054Z 29012KT 19/M10 A2988 RMK A01 T01911098  RH  013%=      5-min Rain = 0
KMC6 050055Z 30012KT 19/M10 A2988 RMK A01 T01891098  RH  013%=      5-min Rain = 0
KMC6 050056Z 30011KT 19/M10 A2988 RMK A01 T01881098  RH  013%=      5-min Rain = 0
KMC6 050057Z 30012KT 19/M10 A2988 RMK A01 T01861097  RH  014%=      5-min Rain = 0
KMC6 050058Z 29012KT 19/M10 A2988 RMK A01 T01851097  RH  014%=      5-min Rain = 0
KMC6 050059Z 29012KT 18/M10 A2988 RMK A01 T01841097  RH  014%=      5-min Rain = 0
KMC6 050100Z 29012KT 18/M10 A2988 RMK A01 T01831096  RH  014%=      5-min Rain = 0
KMC6 050101Z 29012KT 18/M10 A2988 RMK A01 T01821096  RH  014%=      5-min Rain = 0
KMC6 050102Z 29012KT 18/M10 A2988 RMK A01 T01821095  RH  014%=      5-min Rain = 0
KMC6 050103Z 29012KT 18/M10 A2988 RMK A01 T01811095  RH  014%=      5-min Rain = 0
KMC6 050104Z 29012KT 18/M10 A2988 RMK A01 T01801095  RH  014%=      5-min Rain = 0
KMC6 050105Z 29013KT 18/M09 A2988 RMK A01 T01801094  RH  015%=      5-min Rain = 0
KMC6 050106Z 29012KT 18/M09 A2988 RMK A01 T01801093  RH  015%=      5-min Rain = 0
KMC6 050107Z 29012KT 18/M09 A2988 RMK A01 T01791093  RH  015%=      5-min Rain = 0
KMC6 050108Z 29012KT 18/M09 A2988 RMK A01 T01781093  RH  015%=      5-min Rain = 0
KMC6 050109Z 29013KT 18/M09 A2988 RMK A01 T01781093  RH  015%=      5-min Rain = 0
KMC6 050110Z 29013KT 18/M09 A2988 RMK A01 T01781092  RH  015%=      5-min Rain = 0
KMC6 050111Z 29013KT 18/M09 A2988 RMK A01 T01771091  RH  015%=      5-min Rain = 0
KMC6 050112Z 29013KT 18/M09 A2988 RMK A01 T01771090  RH  015%=      5-min Rain = 0
KMC6 050113Z 29014KT 18/M09 A2988 RMK A01 T01761090  RH  015%=      5-min Rain = 0
KMC6 050114Z 29014KT 18/M09 A2988 RMK A01 T01761089  RH  016%=      5-min Rain = 0
KMC6 050115Z 29013KT 18/M09 A2988 RMK A01 T01761088  RH  016%=      5-min Rain = 0
KMC6 050116Z 29014KT 18/M09 A2988 RMK A01 T01761087  RH  016%=      5-min Rain = 0
KMC6 050117Z 30014KT 18/M09 A2988 RMK A01 T01761087  RH  016%=      5-min Rain = 0
KMC6 050118Z 30014KT 18/M09 A2988 RMK A01 T01761086  RH  016%=      5-min Rain = 0
KMC6 050119Z 30014KT 18/M09 A2988 RMK A01 T01751086  RH  016%=      5-min Rain = 0
KMC6 050120Z 30014KT 17/M09 A2988 RMK A01 T01741085  RH  016%=      5-min Rain = 0
KMC6 050121Z 30013KT 17/M09 A2988 RMK A01 T01741085  RH  016%=      5-min Rain = 0
KMC6 050122Z 29014G20KT 17/M09 A2988 RMK A01 T01731085  RH  016%=      5-min Rain = 0
KMC6 050123Z 29014KT 17/M08 A2988 RMK A01 T01731084  RH  017%=      5-min Rain = 0
KMC6 050124Z 29014KT 17/M08 A2988 RMK A01 T01721084  RH  017%=      5-min Rain = 0
KMC6 050125Z 29014KT 17/M08 A2988 RMK A01 T01711083  RH  017%=      5-min Rain = 0
KMC6 050126Z 30014KT 17/M08 A2988 RMK A01 T01711083  RH  017%=      5-min Rain = 0
KMC6 050127Z 30014KT 17/M08 A2989 RMK A01 T01711082  RH  017%=      5-min Rain = 0
KMC6 050128Z 29015KT 17/M08 A2989 RMK A01 T01701082  RH  017%=      5-min Rain = 0
KMC6 050129Z 29014KT 17/M08 A2989 RMK A01 T01701082  RH  017%=      5-min Rain = 0
KMC6 050130Z 29014KT 17/M08 A2989 RMK A01 T01691082  RH  017%=      5-min Rain = 0
KMC6 050131Z 29014KT 17/M08 A2989 RMK A01 T01681082  RH  017%=      5-min Rain = 0
KMC6 050132Z 30014KT 17/M08 A2989 RMK A01 T01661082  RH  017%=      5-min Rain = 0
KMC6 050133Z 30013KT 17/M08 A2989 RMK A01 T01661082  RH  018%=      5-min Rain = 0
KMC6 050134Z 30014KT 17/M08 A2989 RMK A01 T01651082  RH  018%=      5-min Rain = 0
KMC6 050135Z 29014KT 16/M08 A2989 RMK A01 T01641082  RH  018%=      5-min Rain = 0
KMC6 050136Z 29014KT 16/M08 A2989 RMK A01 T01631082  RH  018%=      5-min Rain = 0
KMC6 050137Z 29014KT 16/M08 A2989 RMK A01 T01631082  RH  018%=      5-min Rain = 0
KMC6 050138Z 29014KT 16/M08 A2989 RMK A01 T01621082  RH  018%=      5-min Rain = 0
KMC6 050139Z 29013KT 16/M08 A2989 RMK A01 T01621082  RH  018%=      5-min Rain = 0
KMC6 050140Z 29013KT 16/M08 A2989 RMK A01 T01611082  RH  018%=      5-min Rain = 0
KMC6 050141Z 29013KT 16/M08 A2989 RMK A01 T01601083  RH  018%=      5-min Rain = 0
KMC6 050142Z 29012KT 16/M08 A2989 RMK A01 T01591083  RH  018%=      5-min Rain = 0
KMC6 050143Z 29012KT 16/M08 A2989 RMK A01 T01581083  RH  018%=      5-min Rain = 0
KMC6 050144Z 29012G17KT 16/M08 A2989 RMK A01 T01571084  RH  018%=      5-min Rain = 0
KMC6 050145Z 29011KT 16/M08 A2989 RMK A01 T01571084  RH  018%=      5-min Rain = 0
KMC6 050146Z 29011KT 16/M08 A2989 RMK A01 T01571084  RH  018%=      5-min Rain = 0
KMC6 050147Z 29012KT 16/M08 A2989 RMK A01 T01561084  RH  018%=      5-min Rain = 0
KMC6 050148Z 29012KT 16/M08 A2989 RMK A01 T01561084  RH  018%=      5-min Rain = 0
KMC6 050149Z 29011KT 16/M08 A2989 RMK A01 T01551084  RH  018%=      5-min Rain = 0
KMC6 050150Z 29012KT 15/M09 A2989 RMK A01 T01541085  RH  018%=      5-min Rain = 0
KMC6 050151Z 29012KT 15/M09 A2989 RMK A01 T01521085  RH  019%=      5-min Rain = 0
KMC6 050152Z 29012KT 15/M09 A2989 RMK A01 T01511086  RH  019%=      5-min Rain = 0
KMC6 050153Z 29012KT 15/M09 A2989 RMK A01 T01511086  RH  019%=      5-min Rain = 0
KMC6 050154Z 29013KT 15/M09 A2989 RMK A01 T01511086  RH  019%=      5-min Rain = 0
KMC6 050155Z 29014KT 15/M09 A299 RMK A01 T01521086  RH  018%=      5-min Rain = 0
KMC6 050156Z 29015KT 15/M09 A299 RMK A01 T01541087  RH  018%=      5-min Rain = 0
KMC6 050157Z 29014KT 15/M09 A299 RMK A01 T01541087  RH  018%=      5-min Rain = 0
KMC6 050158Z 29015KT 15/M09 A299 RMK A01 T01541087  RH  018%=      5-min Rain = 0
KMC6 050159Z 29014KT 16/M09 A299 RMK A01 T01551088  RH  018%=      5-min Rain = 0
KMC6 050200Z 29013KT 16/M09 A299 RMK A01 T01551088  RH  018%=      5-min Rain = 0
KMC6 050201Z 29012KT 16/M09 A299 RMK A01 T01551088  RH  018%=      5-min Rain = 0
KMC6 050202Z 29012KT 15/M09 A299 RMK A01 T01541089  RH  018%=      5-min Rain = 0
KMC6 050203Z 29012KT 15/M09 A299 RMK A01 T01541089  RH  018%=      5-min Rain = 0
KMC6 050204Z 29012KT 15/M09 A299 RMK A01 T01541089  RH  018%=      5-min Rain = 0
KMC6 050205Z 29012KT 15/M09 A299 RMK A01 T01541089  RH  018%=      5-min Rain = 0
KMC6 050206Z 29012KT 15/M09 A299 RMK A01 T01541089  RH  018%=      5-min Rain = 0
KMC6 050207Z 29014KT 15/M09 A299 RMK A01 T01531089  RH  018%=      5-min Rain = 0
KMC6 050208Z 29014KT 15/M09 A299 RMK A01 T01521089  RH  018%=      5-min Rain = 0
KMC6 050209Z 29014KT 15/M09 A299 RMK A01 T01531089  RH  018%=      5-min Rain = 0
KMC6 050210Z 29015KT 15/M09 A299 RMK A01 T01531089  RH  018%=      5-min Rain = 0
KMC6 050211Z 29014G19KT 15/M09 A299 RMK A01 T01541089  RH  018%=      5-min Rain = 0
KMC6 050212Z 29016KT 15/M09 A299 RMK A01 T01541090  RH  018%=      5-min Rain = 0
KMC6 050213Z 29014KT 16/M09 A299 RMK A01 T01551089  RH  018%=      5-min Rain = 0
KMC6 050214Z 29013KT 16/M09 A299 RMK A01 T01551090  RH  018%=      5-min Rain = 0
KMC6 050215Z 29014KT 15/M09 A299 RMK A01 T01531090  RH  018%=      5-min Rain = 0
KMC6 050216Z 29013KT 15/M09 A299 RMK A01 T01531090  RH  018%=      5-min Rain = 0
KMC6 050217Z 29014KT 15/M09 A299 RMK A01 T01521090  RH  018%=      5-min Rain = 0
KMC6 050218Z 29014KT 15/M09 A299 RMK A01 T01521090  RH  018%=      5-min Rain = 0
KMC6 050219Z 29014G20KT 15/M09 A299 RMK A01 T01521090  RH  018%=      5-min Rain = 0
KMC6 050220Z 29016KT 15/M09 A299 RMK A01 T01521090  RH  018%=      5-min Rain = 0
KMC6 050221Z 29015KT 15/M09 A299 RMK A01 T01521090  RH  018%=      5-min Rain = 0
KMC6 050222Z 29015KT 15/M09 A299 RMK A01 T01521090  RH  018%=      5-min Rain = 0
KMC6 050223Z 29016KT 15/M09 A299 RMK A01 T01511090  RH  018%=      5-min Rain = 0
KMC6 050224Z 29016G21KT 15/M09 A299 RMK A01 T01511089  RH  018%=      5-min Rain = 0
KMC6 050225Z 29016KT 15/M09 A299 RMK A01 T01521089  RH  018%=      5-min Rain = 0
KMC6 050226Z 29016G21KT 15/M09 A299 RMK A01 T01521089  RH  018%=      5-min Rain = 0
KMC6 050227Z 29016KT 15/M09 A299 RMK A01 T01531089  RH  018%=      5-min Rain = 0
KMC6 050228Z 29016KT 15/M09 A299 RMK A01 T01531090  RH  018%=      5-min Rain = 0
KMC6 050229Z 29016KT 15/M09 A299 RMK A01 T01531090  RH  018%=      5-min Rain = 0
KMC6 050230Z 29016KT 15/M09 A299 RMK A01 T01511090  RH  018%=      5-min Rain = 0
KMC6 050231Z 29017KT 15/M09 A299 RMK A01 T01501089  RH  018%=      5-min Rain = 0
KMC6 050232Z 29017KT 15/M09 A299 RMK A01 T01501089  RH  018%=      5-min Rain = 0
KMC6 050233Z 29018KT 15/M09 A299 RMK A01 T01501089  RH  018%=      5-min Rain = 0
KMC6 050234Z 29018KT 15/M09 A299 RMK A01 T01501089  RH  018%=      5-min Rain = 0
KMC6 050235Z 29018KT 15/M09 A2991 RMK A01 T01501089  RH  018%=      5-min Rain = 0
KMC6 050236Z 29019KT 15/M09 A2991 RMK A01 T01511088  RH  018%=      5-min Rain = 0
KMC6 050237Z 29019KT 15/M09 A2991 RMK A01 T01531088  RH  018%=      5-min Rain = 0
KMC6 050238Z 29019KT 15/M09 A2991 RMK A01 T01541088  RH  018%=      5-min Rain = 0
KMC6 050239Z 29017G22KT 16/M09 A2991 RMK A01 T01551087  RH  018%=      5-min Rain = 0
KMC6 050240Z 29017KT 16/M09 A2991 RMK A01 T01551088  RH  018%=      5-min Rain = 0
KMC6 050241Z 29017KT 16/M09 A2991 RMK A01 T01551088  RH  018%=      5-min Rain = 0
KMC6 050242Z 29017KT 16/M09 A2991 RMK A01 T01551088  RH  018%=      5-min Rain = 0
KMC6 050243Z 29018KT 16/M09 A2991 RMK A01 T01551088  RH  018%=      5-min Rain = 0
KMC6 050244Z 29017KT 15/M09 A2991 RMK A01 T01541088  RH  018%=      5-min Rain = 0
KMC6 050245Z 29018KT 15/M09 A299 RMK A01 T01531088  RH  018%=      5-min Rain = 0
KMC6 050246Z 29018KT 15/M09 A299 RMK A01 T01521088  RH  018%=      5-min Rain = 0
KMC6 050247Z 29017KT 15/M09 A2991 RMK A01 T01511087  RH  018%=      5-min Rain = 0
KMC6 050248Z 29017G22KT 15/M09 A2991 RMK A01 T01501087  RH  019%=      5-min Rain = 0
KMC6 050249Z 29017KT 15/M09 A2991 RMK A01 T01501087  RH  019%=      5-min Rain = 0
KMC6 050250Z 29017KT 15/M09 A2991 RMK A01 T01501087  RH  019%=      5-min Rain = 0
KMC6 050251Z 29016KT 15/M09 A2991 RMK A01 T01501087  RH  019%=      5-min Rain = 0
KMC6 050252Z 29017KT 15/M09 A2991 RMK A01 T01511087  RH  019%=      5-min Rain = 0
KMC6 050253Z 29016KT 15/M09 A2991 RMK A01 T01511086  RH  019%=      5-min Rain = 0
KMC6 050254Z 29016KT 15/M09 A2991 RMK A01 T01511087  RH  019%=      5-min Rain = 0
KMC6 050255Z 29016KT 15/M09 A2991 RMK A01 T01521086  RH  019%=      5-min Rain = 0
KMC6 050256Z 28015KT 15/M09 A2991 RMK A01 T01501087  RH  019%=      5-min Rain = 0
KMC6 050257Z 28016KT 15/M09 A2991 RMK A01 T01491087  RH  019%=      5-min Rain = 0
KMC6 050258Z 29015KT 15/M09 A2991 RMK A01 T01481087  RH  019%=      5-min Rain = 0
KMC6 050259Z 29015KT 15/M09 A2991 RMK A01 T01481087  RH  019%=      5-min Rain = 0
KMC6 050300Z 29014KT 15/M09 A2991 RMK A01 T01471087  RH  019%=      5-min Rain = 0
KMC6 050301Z 29014KT 14/M09 A2991 RMK A01 T01441087  RH  019%=      5-min Rain = 0
KMC6 050302Z 29014KT 14/M09 A2992 RMK A01 T01431087  RH  020%=      5-min Rain = 0
KMC6 050303Z 29014KT 14/M09 A2992 RMK A01 T01421087  RH  020%=      5-min Rain = 0
KMC6 050304Z 29015KT 14/M09 A2992 RMK A01 T01401087  RH  020%=      5-min Rain = 0
KMC6 050305Z 29016KT 14/M09 A2992 RMK A01 T01401087  RH  020%=      5-min Rain = 0
KMC6 050306Z 29015KT 14/M09 A2992 RMK A01 T01401086  RH  020%=      5-min Rain = 0
KMC6 050307Z 29015KT 14/M09 A2992 RMK A01 T01401086  RH  020%=      5-min Rain = 0
KMC6 050308Z 29015KT 14/M09 A2992 RMK A01 T01401086  RH  020%=      5-min Rain = 0
KMC6 050309Z 29015G20KT 14/M09 A2991 RMK A01 T01411086  RH  020%=      5-min Rain = 0
KMC6 050310Z 29015G21KT 14/M09 A2991 RMK A01 T01421085  RH  020%=      5-min Rain = 0
KMC6 050311Z 29017KT 14/M08 A2991 RMK A01 T01441084  RH  020%=      5-min Rain = 0
KMC6 050312Z 29018KT 15/M08 A2991 RMK A01 T01481083  RH  019%=      5-min Rain = 0
KMC6 050313Z 29018KT 15/M08 A2991 RMK A01 T01491083  RH  019%=      5-min Rain = 0
KMC6 050314Z 29017KT 15/M08 A2991 RMK A01 T01501083  RH  019%=      5-min Rain = 0
KMC6 050315Z 29017KT 15/M08 A2991 RMK A01 T01501083  RH  019%=      5-min Rain = 0
KMC6 050316Z 29017KT 15/M08 A2991 RMK A01 T01501083  RH  019%=      5-min Rain = 0
KMC6 050317Z 29017KT 15/M08 A2991 RMK A01 T01491083  RH  019%=      5-min Rain = 0
KMC6 050318Z 29016G21KT 15/M08 A2991 RMK A01 T01481082  RH  019%=      5-min Rain = 0
KMC6 050319Z 29016KT 15/M08 A2992 RMK A01 T01481082  RH  020%=      5-min Rain = 0
KMC6 050320Z 29016KT 15/M08 A2992 RMK A01 T01481082  RH  020%=      5-min Rain = 0
KMC6 050321Z 29016KT 15/M08 A2992 RMK A01 T01471082  RH  020%=      5-min Rain = 0
KMC6 050322Z 29017G22KT 15/M08 A2992 RMK A01 T01471082  RH  020%=      5-min Rain = 0
KMC6 050323Z 29017KT 15/M08 A2992 RMK A01 T01491081  RH  020%=      5-min Rain = 0
KMC6 050324Z 29017KT 15/M08 A2992 RMK A01 T01501081  RH  020%=      5-min Rain = 0
KMC6 050325Z 29017KT 15/M08 A2992 RMK A01 T01501081  RH  019%=      5-min Rain = 0
KMC6 050326Z 29017KT 15/M08 A2992 RMK A01 T01501081  RH  019%=      5-min Rain = 0
KMC6 050327Z 29018KT 15/M08 A2992 RMK A01 T01501081  RH  019%=      5-min Rain = 0
KMC6 050328Z 29016G22KT 15/M08 A2992 RMK A01 T01511081  RH  019%=      5-min Rain = 0
KMC6 050329Z 29016G21KT 15/M08 A2992 RMK A01 T01511080  RH  019%=      5-min Rain = 0
KMC6 050330Z 29017G23KT 15/M08 A2992 RMK A01 T01501080  RH  020%=      5-min Rain = 0
KMC6 050331Z 29017G22KT 15/M08 A2992 RMK A01 T01501079  RH  020%=      5-min Rain = 0
KMC6 050332Z 29018KT 15/M08 A2992 RMK A01 T01501078  RH  020%=      5-min Rain = 0
KMC6 050333Z 29018G24KT 15/M08 A2992 RMK A01 T01501076  RH  020%=      5-min Rain = 0
KMC6 050334Z 29018KT 15/M07 A2992 RMK A01 T01521074  RH  020%=      5-min Rain = 0
KMC6 050335Z 29018KT 15/M07 A2992 RMK A01 T01521074  RH  020%=      5-min Rain = 0
KMC6 050336Z 30018KT 15/M07 A2992 RMK A01 T01531074  RH  020%=      5-min Rain = 0
KMC6 050337Z 30018G23KT 15/M07 A2992 RMK A01 T01541074  RH  020%=      5-min Rain = 0
KMC6 050338Z 30018KT 15/M07 A2992 RMK A01 T01531074  RH  020%=      5-min Rain = 0
KMC6 050339Z 30018KT 15/M07 A2992 RMK A01 T01521074  RH  020%=      5-min Rain = 0
KMC6 050340Z 30017KT 15/M07 A2992 RMK A01 T01511074  RH  020%=      5-min Rain = 0
KMC6 050341Z 30017KT 15/M07 A2992 RMK A01 T01501074  RH  021%=      5-min Rain = 0
KMC6 050342Z 30018G23KT 15/M07 A2992 RMK A01 T01501073  RH  021%=      5-min Rain = 0
KMC6 050343Z 30018G24KT 15/M07 A2992 RMK A01 T01501072  RH  021%=      5-min Rain = 0
KMC6 050344Z 30019G25KT 15/M07 A2992 RMK A01 T01501071  RH  021%=      5-min Rain = 0
KMC6 050345Z 30019G25KT 15/M07 A2992 RMK A01 T01501070  RH  021%=      5-min Rain = 0
KMC6 050346Z 30021KT 15/M07 A2992 RMK A01 T01501069  RH  021%=      5-min Rain = 0
KMC6 050347Z 30021G26KT 15/M07 A2992 RMK A01 T01501068  RH  022%=      5-min Rain = 0
KMC6 050348Z 30020G25KT 15/M07 A2992 RMK A01 T01501068  RH  022%=      5-min Rain = 0
KMC6 050349Z 30021KT 15/M07 A2992 RMK A01 T01501067  RH  022%=      5-min Rain = 0
KMC6 050350Z 30020G26KT 15/M07 A2992 RMK A01 T01501066  RH  022%=      5-min Rain = 0
KMC6 050351Z 30021KT 15/M07 A2992 RMK A01 T01501065  RH  022%=      5-min Rain = 0
KMC6 050352Z 30020G25KT 15/M06 A2992 RMK A01 T01501064  RH  022%=      5-min Rain = 0
KMC6 050353Z 30021KT 15/M06 A2992 RMK A01 T01491064  RH  022%=      5-min Rain = 0
KMC6 050354Z 30018KT 15/M07 A2992 RMK A01 T01501065  RH  022%=      5-min Rain = 0
KMC6 050355Z 30018KT 15/M07 A2993 RMK A01 T01501065  RH  022%=      5-min Rain = 0
KMC6 050356Z 30018KT 15/M07 A2993 RMK A01 T01481066  RH  022%=      5-min Rain = 0
KMC6 050357Z 30017KT 15/M07 A2993 RMK A01 T01471066  RH  022%=      5-min Rain = 0
KMC6 050358Z 31016G22KT 15/M07 A2993 RMK A01 T01451066  RH  023%=      5-min Rain = 0
KMC6 050359Z 31017G24KT 14/M07 A2993 RMK A01 T01441066  RH  023%=      5-min Rain = 0
KMC6 050400Z 31018G23KT 14/M07 A2993 RMK A01 T01431065  RH  023%=      5-min Rain = 0
KMC6 050401Z 31018KT 14/M06 A2993 RMK A01 T01431064  RH  023%=      5-min Rain = 0
KMC6 050402Z 31019KT 14/M06 A2993 RMK A01 T01431064  RH  023%=      5-min Rain = 0
KMC6 050403Z 31019KT 14/M06 A2993 RMK A01 T01421063  RH  023%=      5-min Rain = 0
KMC6 050404Z 31019KT 14/M06 A2992 RMK A01 T01421063  RH  024%=      5-min Rain = 0
KMC6 050405Z 31019KT 14/M06 A2992 RMK A01 T01421063  RH  024%=      5-min Rain = 0
KMC6 050406Z 31019KT 14/M06 A2992 RMK A01 T01411063  RH  024%=      5-min Rain = 0
KMC6 050407Z 31018KT 14/M06 A2992 RMK A01 T01411063  RH  024%=      5-min Rain = 0
KMC6 050408Z 31019KT 14/M06 A2992 RMK A01 T01401063  RH  024%=      5-min Rain = 0
KMC6 050409Z 31017G22KT 14/M06 A2992 RMK A01 T01391063  RH  024%=      5-min Rain = 0
KMC6 050410Z 31017G22KT 14/M06 A2992 RMK A01 T01391063  RH  024%=      5-min Rain = 0
KMC6 050411Z 31018KT 14/M06 A2992 RMK A01 T01381063  RH  024%=      5-min Rain = 0
KMC6 050412Z 31018G25KT 14/M06 A2992 RMK A01 T01371063  RH  024%=      5-min Rain = 0
KMC6 050413Z 31018KT 14/M06 A2992 RMK A01 T01361062  RH  025%=      5-min Rain = 0
KMC6 050414Z 31018KT 14/M06 A2992 RMK A01 T01361062  RH  025%=      5-min Rain = 0
KMC6 050415Z 31018KT 14/M06 A2992 RMK A01 T01361062  RH  025%=      5-min Rain = 0
KMC6 050416Z 31016KT 14/M06 A2992 RMK A01 T01361062  RH  025%=      5-min Rain = 0
KMC6 050417Z 31015KT 13/M06 A2992 RMK A01 T01341062  RH  025%=      5-min Rain = 0
KMC6 050418Z 31015KT 13/M06 A2992 RMK A01 T01321062  RH  025%=      5-min Rain = 0
KMC6 050419Z 31015KT 13/M06 A2992 RMK A01 T01311061  RH  026%=      5-min Rain = 0
KMC6 050420Z 31016KT 13/M06 A2992 RMK A01 T01301061  RH  026%=      5-min Rain = 0
KMC6 050421Z 31015G20KT 13/M06 A2992 RMK A01 T01311060  RH  026%=      5-min Rain = 0
KMC6 050422Z 31014KT 13/M06 A2992 RMK A01 T01311060  RH  026%=      5-min Rain = 0
KMC6 050423Z 31015KT 13/M06 A2992 RMK A01 T01301060  RH  026%=      5-min Rain = 0
KMC6 050424Z 31014KT 13/M06 A2992 RMK A01 T01301059  RH  026%=      5-min Rain = 0
KMC6 050425Z 30015KT 13/M06 A2993 RMK A01 T01291059  RH  026%=      5-min Rain = 0
KMC6 050426Z 30015G20KT 13/M06 A2993 RMK A01 T01291059  RH  027%=      5-min Rain = 0
KMC6 050427Z 30014KT 13/M06 A2993 RMK A01 T01291059  RH  027%=      5-min Rain = 0
KMC6 050428Z 30015KT 13/M06 A2993 RMK A01 T01271059  RH  027%=      5-min Rain = 0
KMC6 050429Z 30016KT 13/M06 A2993 RMK A01 T01261059  RH  027%=      5-min Rain = 0
KMC6 050430Z 30016G21KT 13/M06 A2993 RMK A01 T01271058  RH  027%=      5-min Rain = 0
KMC6 050431Z 30015KT 13/M06 A2993 RMK A01 T01281058  RH  027%=      5-min Rain = 0
KMC6 050432Z 30016G21KT 13/M06 A2993 RMK A01 T01271059  RH  027%=      5-min Rain = 0
KMC6 050433Z 30015KT 13/M06 A2993 RMK A01 T01261059  RH  027%=      5-min Rain = 0
KMC6 050434Z 30014KT 13/M06 A2993 RMK A01 T01261059  RH  027%=      5-min Rain = 0
KMC6 050435Z 30015G20KT 13/M06 A2993 RMK A01 T01251059  RH  027%=      5-min Rain = 0
KMC6 050436Z 30015KT 12/M06 A2993 RMK A01 T01241059  RH  027%=      5-min Rain = 0
KMC6 050437Z 30014KT 12/M06 A2993 RMK A01 T01241059  RH  027%=      5-min Rain = 0
KMC6 050438Z 30014KT 12/M06 A2993 RMK A01 T01231059  RH  028%=      5-min Rain = 0
KMC6 050439Z 30014KT 12/M06 A2993 RMK A01 T01231058  RH  028%=      5-min Rain = 0
KMC6 050440Z 30014KT 12/M06 A2993 RMK A01 T01221059  RH  028%=      5-min Rain = 0
KMC6 050441Z 30014KT 12/M06 A2993 RMK A01 T01221058  RH  028%=      5-min Rain = 0
KMC6 050442Z 30014KT 12/M06 A2993 RMK A01 T01211058  RH  028%=      5-min Rain = 0
KMC6 050443Z 30014KT 12/M06 A2993 RMK A01 T01211057  RH  028%=      5-min Rain = 0
KMC6 050444Z 30014KT 12/M06 A2993 RMK A01 T01211057  RH  028%=      5-min Rain = 0
KMC6 050445Z 30013KT 12/M06 A2992 RMK A01 T01201057  RH  028%=      5-min Rain = 0
KMC6 050446Z 30013G18KT 12/M06 A2993 RMK A01 T01201057  RH  029%=      5-min Rain = 0
KMC6 050447Z 30014KT 12/M06 A2993 RMK A01 T01201056  RH  029%=      5-min Rain = 0
KMC6 050448Z 30013KT 12/M06 A2993 RMK A01 T01201056  RH  029%=      5-min Rain = 0
KMC6 050449Z 30014KT 12/M06 A2993 RMK A01 T01191057  RH  029%=      5-min Rain = 0
KMC6 050450Z 30013KT 12/M06 A2993 RMK A01 T01181056  RH  029%=      5-min Rain = 0
KMC6 050451Z 30013KT 12/M06 A2993 RMK A01 T01181056  RH  029%=      5-min Rain = 0
KMC6 050452Z 30013KT 12/M06 A2993 RMK A01 T01171056  RH  029%=      5-min Rain = 0
KMC6 050453Z 30013KT 12/M06 A2993 RMK A01 T01171056  RH  029%=      5-min Rain = 0
KMC6 050454Z 30012KT 12/M06 A2993 RMK A01 T01161056  RH  029%=      5-min Rain = 0
KMC6 050455Z 30012KT 12/M06 A2993 RMK A01 T01151057  RH  030%=      5-min Rain = 0
KMC6 050456Z 30012KT 11/M06 A2993 RMK A01 T01141057  RH  030%=      5-min Rain = 0
KMC6 050457Z 30013KT 11/M06 A2993 RMK A01 T01141057  RH  030%=      5-min Rain = 0
KMC6 050458Z 30012KT 11/M06 A2993 RMK A01 T01131057  RH  030%=      5-min Rain = 0
KMC6 050459Z 30012KT 11/M06 A2993 RMK A01 T01121058  RH  030%=      5-min Rain = 0
KMC6 050500Z 30011KT 11/M06 A2993 RMK A01 T01101058  RH  030%=      5-min Rain = 0
KMC6 050501Z 30011KT 11/M06 A2993 RMK A01 T01091058  RH  030%=      5-min Rain = 0
KMC6 050502Z 29011KT 11/M06 A2993 RMK A01 T01081058  RH  031%=      5-min Rain = 0
KMC6 050503Z 29011KT 11/M06 A2993 RMK A01 T01071058  RH  031%=      5-min Rain = 0
KMC6 050504Z 29012KT 11/M06 A2993 RMK A01 T01071058  RH  031%=      5-min Rain = 0
KMC6 050505Z 29012KT 11/M06 A2993 RMK A01 T01081057  RH  031%=      5-min Rain = 0
KMC6 050506Z 29011KT 11/M06 A2993 RMK A01 T01081057  RH  031%=      5-min Rain = 0
KMC6 050507Z 29012KT 11/M06 A2993 RMK A01 T01081057  RH  031%=      5-min Rain = 0
KMC6 050508Z 29012KT 11/M06 A2993 RMK A01 T01081056  RH  031%=      5-min Rain = 0
KMC6 050509Z 29012KT 11/M06 A2993 RMK A01 T01091056  RH  031%=      5-min Rain = 0
KMC6 050510Z 29012KT 11/M06 A2993 RMK A01 T01091056  RH  031%=      5-min Rain = 0
KMC6 050511Z 29013KT 11/M06 A2993 RMK A01 T01091055  RH  031%=      5-min Rain = 0
KMC6 050512Z 29012KT 11/M05 A2993 RMK A01 T01101054  RH  031%=      5-min Rain = 0
KMC6 050513Z 29013KT 11/M06 A2993 RMK A01 T01101055  RH  031%=      5-min Rain = 0
KMC6 050514Z 29011KT 11/M06 A2993 RMK A01 T01101055  RH  031%=      5-min Rain = 0
KMC6 050515Z 29011KT 11/M06 A2993 RMK A01 T01091055  RH  031%=      5-min Rain = 0
KMC6 050516Z 29011KT 11/M06 A2993 RMK A01 T01081055  RH  031%=      5-min Rain = 0
KMC6 050517Z 29011KT 11/M06 A2993 RMK A01 T01071055  RH  032%=      5-min Rain = 0
KMC6 050518Z 29011KT 11/M05 A2993 RMK A01 T01071054  RH  032%=      5-min Rain = 0
KMC6 050519Z 29012KT 11/M05 A2993 RMK A01 T01071054  RH  032%=      5-min Rain = 0
KMC6 050520Z 29012KT 11/M05 A2993 RMK A01 T01071053  RH  032%=      5-min Rain = 0
KMC6 050521Z 29013KT 11/M05 A2993 RMK A01 T01071053  RH  032%=      5-min Rain = 0
KMC6 050522Z 29012KT 11/M05 A2993 RMK A01 T01091052  RH  032%=      5-min Rain = 0
KMC6 050523Z 29013KT 11/M05 A2993 RMK A01 T01101052  RH  032%=      5-min Rain = 0
KMC6 050524Z 29013KT 11/M05 A2993 RMK A01 T01111052  RH  032%=      5-min Rain = 0
KMC6 050525Z 29012KT 11/M05 A2993 RMK A01 T01111052  RH  031%=      5-min Rain = 0
KMC6 050526Z 29011KT 11/M05 A2993 RMK A01 T01101053  RH  032%=      5-min Rain = 0
KMC6 050527Z 29012KT 11/M05 A2993 RMK A01 T01081053  RH  032%=      5-min Rain = 0
KMC6 050528Z 29014KT 11/M05 A2993 RMK A01 T01081052  RH  032%=      5-min Rain = 0
KMC6 050529Z 29014KT 11/M05 A2993 RMK A01 T01081052  RH  032%=      5-min Rain = 0
KMC6 050530Z 29014KT 11/M05 A2993 RMK A01 T01081052  RH  032%=      5-min Rain = 0
KMC6 050531Z 29013KT 11/M05 A2993 RMK A01 T01081052  RH  032%=      5-min Rain = 0
KMC6 050532Z 29012KT 11/M05 A2993 RMK A01 T01081053  RH  032%=      5-min Rain = 0
KMC6 050533Z 29013KT 11/M05 A2993 RMK A01 T01071053  RH  032%=      5-min Rain = 0
KMC6 050534Z 29014KT 11/M05 A2993 RMK A01 T01061053  RH  032%=      5-min Rain = 0
KMC6 050535Z 29015KT 11/M05 A2993 RMK A01 T01071052  RH  032%=      5-min Rain = 0
KMC6 050536Z 29013KT 11/M05 A2993 RMK A01 T01081051  RH  032%=      5-min Rain = 0
KMC6 050537Z 29013KT 11/M05 A2993 RMK A01 T01081052  RH  032%=      5-min Rain = 0
KMC6 050538Z 29014KT 11/M05 A2993 RMK A01 T01081052  RH  032%=      5-min Rain = 0
KMC6 050539Z 29014KT 11/M05 A2993 RMK A01 T01081051  RH  032%=      5-min Rain = 0
KMC6 050540Z 29014KT 11/M05 A2993 RMK A01 T01091051  RH  032%=      5-min Rain = 0
KMC6 050541Z 29013KT 11/M05 A2993 RMK A01 T01091051  RH  032%=      5-min Rain = 0
KMC6 050542Z 29014KT 11/M05 A2993 RMK A01 T01081051  RH  032%=      5-min Rain = 0
KMC6 050543Z 29014KT 11/M05 A2993 RMK A01 T01081051  RH  032%=      5-min Rain = 0
KMC6 050544Z 29014KT 11/M05 A2993 RMK A01 T01091051  RH  032%=      5-min Rain = 0
KMC6 050545Z 29013KT 11/M05 A2993 RMK A01 T01091050  RH  032%=      5-min Rain = 0
KMC6 050546Z 29012G17KT 11/M05 A2993 RMK A01 T01091051  RH  032%=      5-min Rain = 0
KMC6 050547Z 29012KT 11/M05 A2993 RMK A01 T01071052  RH  032%=      5-min Rain = 0
KMC6 050548Z 29012KT 11/M05 A2993 RMK A01 T01051052  RH  033%=      5-min Rain = 0
KMC6 050549Z 29013KT 10/M05 A2993 RMK A01 T01041052  RH  033%=      5-min Rain = 0
KMC6 050550Z 29013KT 10/M05 A2993 RMK A01 T01031052  RH  033%=      5-min Rain = 0
KMC6 050551Z 29012KT 10/M05 A2993 RMK A01 T01031051  RH  033%=      5-min Rain = 0
KMC6 050552Z 29013KT 10/M05 A2993 RMK A01 T01031051  RH  033%=      5-min Rain = 0
KMC6 050553Z 29013KT 10/M05 A2993 RMK A01 T01041051  RH  033%=      5-min Rain = 0
KMC6 050554Z 29013KT 11/M05 A2993 RMK A01 T01051051  RH  033%=      5-min Rain = 0
KMC6 050555Z 29013KT 11/M05 A2993 RMK A01 T01051051  RH  033%=      5-min Rain = 0
KMC6 050556Z 29012KT 10/M05 A2993 RMK A01 T01041051  RH  033%=      5-min Rain = 0
KMC6 050557Z 29013KT 10/M05 A2993 RMK A01 T01041051  RH  033%=      5-min Rain = 0
KMC6 050558Z 29013KT 10/M05 A2993 RMK A01 T01041052  RH  033%=      5-min Rain = 0
KMC6 050559Z 29013KT 10/M05 A2993 RMK A01 T01031051  RH  033%=      5-min Rain = 0

Page generated in 0.115 seconds.